<?xml version="1.0" encoding="UTF-8"?>
<gpx version="1.1" creator="2bulu-scraper" xmlns="http://www.topografix.com/GPX/1/1">
  <metadata><name>自贡五条沟</name><desc>source: 2bulu.com trackId=78251722; exported 2026-09-01T15:45:06.548Z</desc>
    <bounds minlat="28.9992346" minlon="104.772927" maxlat="29.0187308" maxlon="104.7850408"/>
    <link href="https://www.2bulu.com/track/t-gBNiz9zAWIPp%252FR2KBg5Tzw%253D%253D.htm"><text>2bulu 源页面</text></link>
  </metadata>
  <wpt lat="29.0132212" lon="104.7753591"><ele>265</ele><name>停车点
        </name></wpt>
  <wpt lat="29.0132212" lon="104.7753591"><ele>265</ele><name>
        </name></wpt>
  <wpt lat="29.0149156" lon="104.7736598"><ele>260</ele><name>
        </name></wpt>
  <wpt lat="29.0158038" lon="104.774772"><ele>272</ele><name>
        </name></wpt>
  <wpt lat="29.0187308" lon="104.7778885"><ele>320</ele><name>右转
        </name></wpt>
  <wpt lat="29.0163833" lon="104.7761272"><ele>333</ele><name>
        </name></wpt>
  <wpt lat="29.0136003" lon="104.7761704"><ele>307</ele><name>左边
        </name></wpt>
  <wpt lat="29.0136401" lon="104.7764756"><ele>310</ele><name>左转
        </name></wpt>
  <wpt lat="29.0150822" lon="104.7778124"><ele>313</ele><name>
        </name></wpt>
  <wpt lat="29.0154548" lon="104.778407"><ele>281</ele><name>直行小路
        </name></wpt>
  <wpt lat="29.0165763" lon="104.7799495"><ele>290</ele><name>右边
        </name></wpt>
  <wpt lat="29.0171158" lon="104.7805128"><ele>301</ele><name>右转
        </name></wpt>
  <wpt lat="29.0170451" lon="104.780672"><ele>300</ele><name>走右边
        </name></wpt>
  <wpt lat="29.0174748" lon="104.7822916"><ele>346</ele><name>右转
        </name></wpt>
  <wpt lat="29.0113581" lon="104.7830404"><ele>346</ele><name>
        </name></wpt>
  <wpt lat="29.0112268" lon="104.7834846"><ele>341</ele><name>右转
        </name></wpt>
  <wpt lat="29.0112268" lon="104.7834846"><ele>341</ele><name>
        </name></wpt>
  <wpt lat="29.0106614" lon="104.7828758"><ele>337</ele><name>左转
        </name></wpt>
  <wpt lat="29.0089774" lon="104.782452"><ele>355</ele><name>左转
        </name></wpt>
  <wpt lat="29.0089774" lon="104.782452"><ele>355</ele><name>
        </name></wpt>
  <wpt lat="29.0086683" lon="104.7825676"><ele>339</ele><name>左边
        </name></wpt>
  <wpt lat="29.0086097" lon="104.7830878"><ele>336</ele><name>
        </name></wpt>
  <wpt lat="29.0085906" lon="104.7837732"><ele>356</ele><name>右边
        </name></wpt>
  <wpt lat="29.007813" lon="104.7842658"><ele>359</ele><name>卫生间
        </name></wpt>
  <wpt lat="29.007813" lon="104.7842658"><ele>359</ele><name>
        </name></wpt>
  <wpt lat="29.007813" lon="104.7842658"><ele>359</ele><name>
        </name></wpt>
  <wpt lat="29.0071907" lon="104.7850408"><ele>358</ele><name>右转
        </name></wpt>
  <wpt lat="29.0071907" lon="104.7850408"><ele>359</ele><name>
        </name></wpt>
  <wpt lat="29.0051376" lon="104.7838988"><ele>348</ele><name>
        </name></wpt>
  <wpt lat="29.0051376" lon="104.7838988"><ele>347</ele><name>
        </name></wpt>
  <wpt lat="29.0044864" lon="104.7843571"><ele>330</ele><name>
        </name></wpt>
  <wpt lat="29.0043905" lon="104.7842493"><ele>328</ele><name>
        </name></wpt>
  <wpt lat="29.0043829" lon="104.7833603"><ele>323</ele><name>
        </name></wpt>
  <wpt lat="29.0043829" lon="104.7833603"><ele>319</ele><name>
        </name></wpt>
  <wpt lat="29.0043227" lon="104.783287"><ele>316</ele><name>
        </name></wpt>
  <wpt lat="29.0044776" lon="104.7823589"><ele>314</ele><name>
        </name></wpt>
  <wpt lat="29.0054291" lon="104.7815375"><ele>315</ele><name>
        </name></wpt>
  <wpt lat="29.0034076" lon="104.7800792"><ele>301</ele><name>右边
        </name></wpt>
  <wpt lat="29.0019597" lon="104.7789961"><ele>282</ele><name>
        </name></wpt>
  <wpt lat="29.0018717" lon="104.7789362"><ele>283</ele><name>
        </name></wpt>
  <wpt lat="29.0041641" lon="104.778284"><ele>304</ele><name>右边
        </name></wpt>
  <wpt lat="29.0041641" lon="104.778284"><ele>304</ele><name>
        </name></wpt>
  <wpt lat="29.0087667" lon="104.7740232"><ele>289</ele><name>右转
        </name></wpt>
  <wpt lat="29.0087667" lon="104.7740232"><ele>289</ele><name>
        </name></wpt>
  <wpt lat="29.0132632" lon="104.7749901"><ele>256</ele><name>卫生间
        </name></wpt>
  <trk><name>自贡五条沟</name>
      <trkseg>
        <trkpt lat="29.0132212" lon="104.7753591"><ele>265.2</ele><time>2026-01-14T18:05:04.000Z</time></trkpt>
        <trkpt lat="29.0132212" lon="104.7753591"><ele>265.2</ele><time>2026-01-14T18:05:37.000Z</time></trkpt>
      </trkseg>
      <trkseg>
        <trkpt lat="29.0132424" lon="104.7752455"><ele>265.2</ele><time>2026-01-14T18:09:46.000Z</time></trkpt>
        <trkpt lat="29.0132424" lon="104.7752455"><ele>265.2</ele><time>2026-01-14T18:09:48.000Z</time></trkpt>
        <trkpt lat="29.013303" lon="104.7751664"><ele>267.1</ele><time>2026-01-14T18:10:12.000Z</time></trkpt>
        <trkpt lat="29.0133155" lon="104.7751446"><ele>264.55</ele><time>2026-01-14T18:10:14.000Z</time></trkpt>
        <trkpt lat="29.0133392" lon="104.7750627"><ele>263.03</ele><time>2026-01-14T18:10:26.000Z</time></trkpt>
        <trkpt lat="29.0133996" lon="104.7749828"><ele>261.27</ele><time>2026-01-14T18:10:42.000Z</time></trkpt>
        <trkpt lat="29.0134835" lon="104.7749294"><ele>260.17</ele><time>2026-01-14T18:11:02.000Z</time></trkpt>
        <trkpt lat="29.0135822" lon="104.774894"><ele>259.38</ele><time>2026-01-14T18:11:12.000Z</time></trkpt>
        <trkpt lat="29.0136826" lon="104.7748494"><ele>259.28</ele><time>2026-01-14T18:11:22.000Z</time></trkpt>
        <trkpt lat="29.0137833" lon="104.7747934"><ele>259.53</ele><time>2026-01-14T18:11:32.000Z</time></trkpt>
        <trkpt lat="29.013871" lon="104.7747395"><ele>259.46</ele><time>2026-01-14T18:11:40.000Z</time></trkpt>
        <trkpt lat="29.0139472" lon="104.7746575"><ele>259.45</ele><time>2026-01-14T18:11:50.000Z</time></trkpt>
        <trkpt lat="29.0140099" lon="104.7745519"><ele>259.34</ele><time>2026-01-14T18:12:00.000Z</time></trkpt>
        <trkpt lat="29.0140478" lon="104.7744332"><ele>259.57</ele><time>2026-01-14T18:12:10.000Z</time></trkpt>
        <trkpt lat="29.0140749" lon="104.7743264"><ele>259.55</ele><time>2026-01-14T18:12:18.000Z</time></trkpt>
        <trkpt lat="29.0140977" lon="104.7742249"><ele>259.12</ele><time>2026-01-14T18:12:26.000Z</time></trkpt>
        <trkpt lat="29.0141204" lon="104.7741258"><ele>257.94</ele><time>2026-01-14T18:12:34.000Z</time></trkpt>
        <trkpt lat="29.0141407" lon="104.7740216"><ele>257.29</ele><time>2026-01-14T18:12:42.000Z</time></trkpt>
        <trkpt lat="29.0141591" lon="104.7739193"><ele>256.85</ele><time>2026-01-14T18:12:50.000Z</time></trkpt>
        <trkpt lat="29.0141838" lon="104.7738183"><ele>256.66</ele><time>2026-01-14T18:12:58.000Z</time></trkpt>
        <trkpt lat="29.0142339" lon="104.7737159"><ele>256.45</ele><time>2026-01-14T18:13:08.000Z</time></trkpt>
        <trkpt lat="29.0142813" lon="104.7736453"><ele>255.57</ele><time>2026-01-14T18:13:22.000Z</time></trkpt>
        <trkpt lat="29.0142813" lon="104.7736453"><ele>255.57</ele><time>2026-01-14T18:14:06.000Z</time></trkpt>
        <trkpt lat="29.0142813" lon="104.7736453"><ele>255.57</ele><time>2026-01-14T18:14:12.000Z</time></trkpt>
        <trkpt lat="29.0142813" lon="104.7736453"><ele>255.57</ele><time>2026-01-14T18:14:28.000Z</time></trkpt>
        <trkpt lat="29.0143592" lon="104.7735886"><ele>255.44</ele><time>2026-01-14T18:14:32.000Z</time></trkpt>
        <trkpt lat="29.0143592" lon="104.7735886"><ele>255.44</ele><time>2026-01-14T18:14:42.000Z</time></trkpt>
        <trkpt lat="29.0144443" lon="104.7735425"><ele>254.94</ele><time>2026-01-14T18:14:52.000Z</time></trkpt>
        <trkpt lat="29.0145383" lon="104.7735181"><ele>254.27</ele><time>2026-01-14T18:15:04.000Z</time></trkpt>
        <trkpt lat="29.0146361" lon="104.7735458"><ele>253.58</ele><time>2026-01-14T18:15:18.000Z</time></trkpt>
        <trkpt lat="29.0147294" lon="104.7735974"><ele>254.5</ele><time>2026-01-14T18:15:30.000Z</time></trkpt>
        <trkpt lat="29.0148175" lon="104.7736441"><ele>255.38</ele><time>2026-01-14T18:15:40.000Z</time></trkpt>
        <trkpt lat="29.0149156" lon="104.7736598"><ele>256.64</ele><time>2026-01-14T18:15:50.000Z</time></trkpt>
        <trkpt lat="29.015008" lon="104.7736755"><ele>257.98</ele><time>2026-01-14T18:16:02.000Z</time></trkpt>
        <trkpt lat="29.0150975" lon="104.773727"><ele>259.72</ele><time>2026-01-14T18:16:14.000Z</time></trkpt>
        <trkpt lat="29.0151375" lon="104.7738209"><ele>261.03</ele><time>2026-01-14T18:16:24.000Z</time></trkpt>
        <trkpt lat="29.0151243" lon="104.7739379"><ele>261.94</ele><time>2026-01-14T18:16:34.000Z</time></trkpt>
        <trkpt lat="29.0150609" lon="104.7740283"><ele>262.63</ele><time>2026-01-14T18:16:42.000Z</time></trkpt>
        <trkpt lat="29.0150068" lon="104.7741418"><ele>261.72</ele><time>2026-01-14T18:16:50.000Z</time></trkpt>
        <trkpt lat="29.0149899" lon="104.7742622"><ele>260.42</ele><time>2026-01-14T18:16:56.000Z</time></trkpt>
        <trkpt lat="29.014995" lon="104.7743715"><ele>261.19</ele><time>2026-01-14T18:17:04.000Z</time></trkpt>
        <trkpt lat="29.0150042" lon="104.7744879"><ele>261.96</ele><time>2026-01-14T18:17:16.000Z</time></trkpt>
        <trkpt lat="29.0150048" lon="104.7746083"><ele>261.11</ele><time>2026-01-14T18:17:26.000Z</time></trkpt>
        <trkpt lat="29.0150106" lon="104.7747166"><ele>260.29</ele><time>2026-01-14T18:17:34.000Z</time></trkpt>
        <trkpt lat="29.0150484" lon="104.7748179"><ele>259.15</ele><time>2026-01-14T18:17:42.000Z</time></trkpt>
        <trkpt lat="29.0151253" lon="104.7748725"><ele>257.92</ele><time>2026-01-14T18:17:50.000Z</time></trkpt>
        <trkpt lat="29.0152351" lon="104.774888"><ele>258.18</ele><time>2026-01-14T18:17:58.000Z</time></trkpt>
        <trkpt lat="29.0153424" lon="104.7748903"><ele>259.98</ele><time>2026-01-14T18:18:06.000Z</time></trkpt>
        <trkpt lat="29.0154498" lon="104.7748782"><ele>262.83</ele><time>2026-01-14T18:18:16.000Z</time></trkpt>
        <trkpt lat="29.01554" lon="104.7748343"><ele>265.73</ele><time>2026-01-14T18:18:28.000Z</time></trkpt>
        <trkpt lat="29.015632" lon="104.7747911"><ele>267.12</ele><time>2026-01-14T18:18:40.000Z</time></trkpt>
        <trkpt lat="29.0157247" lon="104.7747672"><ele>268.72</ele><time>2026-01-14T18:18:48.000Z</time></trkpt>
        <trkpt lat="29.0158038" lon="104.774772"><ele>270.17</ele><time>2026-01-14T18:18:58.000Z</time></trkpt>
        <trkpt lat="29.0158896" lon="104.7747872"><ele>271.33</ele><time>2026-01-14T18:19:08.000Z</time></trkpt>
        <trkpt lat="29.0159788" lon="104.7748102"><ele>271.82</ele><time>2026-01-14T18:19:16.000Z</time></trkpt>
        <trkpt lat="29.01608" lon="104.7748288"><ele>272.64</ele><time>2026-01-14T18:19:26.000Z</time></trkpt>
        <trkpt lat="29.0161765" lon="104.7748107"><ele>273.31</ele><time>2026-01-14T18:19:34.000Z</time></trkpt>
        <trkpt lat="29.0162797" lon="104.7747807"><ele>274.39</ele><time>2026-01-14T18:19:44.000Z</time></trkpt>
        <trkpt lat="29.0163815" lon="104.7747546"><ele>275.18</ele><time>2026-01-14T18:19:54.000Z</time></trkpt>
        <trkpt lat="29.0164821" lon="104.7747379"><ele>275.4</ele><time>2026-01-14T18:20:04.000Z</time></trkpt>
        <trkpt lat="29.0165884" lon="104.7747451"><ele>275.19</ele><time>2026-01-14T18:20:16.000Z</time></trkpt>
        <trkpt lat="29.0166824" lon="104.7747675"><ele>275.98</ele><time>2026-01-14T18:20:26.000Z</time></trkpt>
        <trkpt lat="29.0167732" lon="104.7747942"><ele>277.11</ele><time>2026-01-14T18:20:36.000Z</time></trkpt>
        <trkpt lat="29.0168652" lon="104.7748079"><ele>279.05</ele><time>2026-01-14T18:20:44.000Z</time></trkpt>
        <trkpt lat="29.0169632" lon="104.7748352"><ele>281.51</ele><time>2026-01-14T18:20:56.000Z</time></trkpt>
        <trkpt lat="29.0170506" lon="104.7748963"><ele>283.97</ele><time>2026-01-14T18:21:08.000Z</time></trkpt>
        <trkpt lat="29.0171073" lon="104.7749856"><ele>284.92</ele><time>2026-01-14T18:21:16.000Z</time></trkpt>
        <trkpt lat="29.0171627" lon="104.7750924"><ele>285.5</ele><time>2026-01-14T18:21:28.000Z</time></trkpt>
        <trkpt lat="29.0172041" lon="104.7751986"><ele>285.58</ele><time>2026-01-14T18:21:40.000Z</time></trkpt>
        <trkpt lat="29.0172267" lon="104.7753187"><ele>285.53</ele><time>2026-01-14T18:21:50.000Z</time></trkpt>
        <trkpt lat="29.0172697" lon="104.7754157"><ele>284.15</ele><time>2026-01-14T18:21:58.000Z</time></trkpt>
        <trkpt lat="29.0173528" lon="104.7754563"><ele>284</ele><time>2026-01-14T18:22:06.000Z</time></trkpt>
        <trkpt lat="29.0174544" lon="104.7754498"><ele>285.26</ele><time>2026-01-14T18:22:12.000Z</time></trkpt>
        <trkpt lat="29.0175654" lon="104.7754483"><ele>287.15</ele><time>2026-01-14T18:22:20.000Z</time></trkpt>
        <trkpt lat="29.0176682" lon="104.7754429"><ele>289.59</ele><time>2026-01-14T18:22:30.000Z</time></trkpt>
        <trkpt lat="29.0177502" lon="104.7755081"><ele>290.88</ele><time>2026-01-14T18:22:42.000Z</time></trkpt>
        <trkpt lat="29.0177761" lon="104.7756234"><ele>292.21</ele><time>2026-01-14T18:22:52.000Z</time></trkpt>
        <trkpt lat="29.0177569" lon="104.7757516"><ele>293.86</ele><time>2026-01-14T18:23:02.000Z</time></trkpt>
        <trkpt lat="29.0177241" lon="104.7758704"><ele>295.67</ele><time>2026-01-14T18:23:10.000Z</time></trkpt>
        <trkpt lat="29.0177026" lon="104.7759874"><ele>295.84</ele><time>2026-01-14T18:23:18.000Z</time></trkpt>
        <trkpt lat="29.0177219" lon="104.7761075"><ele>295.81</ele><time>2026-01-14T18:23:28.000Z</time></trkpt>
        <trkpt lat="29.0177877" lon="104.7762038"><ele>295.94</ele><time>2026-01-14T18:23:38.000Z</time></trkpt>
        <trkpt lat="29.0178851" lon="104.7762459"><ele>296.35</ele><time>2026-01-14T18:23:48.000Z</time></trkpt>
        <trkpt lat="29.0179917" lon="104.7762091"><ele>297.04</ele><time>2026-01-14T18:23:58.000Z</time></trkpt>
        <trkpt lat="29.0181012" lon="104.7761497"><ele>298.18</ele><time>2026-01-14T18:24:08.000Z</time></trkpt>
        <trkpt lat="29.0182037" lon="104.7760804"><ele>298.94</ele><time>2026-01-14T18:24:18.000Z</time></trkpt>
        <trkpt lat="29.0182976" lon="104.7760255"><ele>299.58</ele><time>2026-01-14T18:24:28.000Z</time></trkpt>
        <trkpt lat="29.0183938" lon="104.7760055"><ele>300.6</ele><time>2026-01-14T18:24:38.000Z</time></trkpt>
        <trkpt lat="29.0184694" lon="104.7760549"><ele>301.92</ele><time>2026-01-14T18:24:46.000Z</time></trkpt>
        <trkpt lat="29.0185169" lon="104.7761543"><ele>303.03</ele><time>2026-01-14T18:24:54.000Z</time></trkpt>
        <trkpt lat="29.0185423" lon="104.7762652"><ele>304.04</ele><time>2026-01-14T18:25:02.000Z</time></trkpt>
        <trkpt lat="29.018562" lon="104.7763882"><ele>304.86</ele><time>2026-01-14T18:25:12.000Z</time></trkpt>
        <trkpt lat="29.0185936" lon="104.7765149"><ele>305.38</ele><time>2026-01-14T18:25:22.000Z</time></trkpt>
        <trkpt lat="29.0186335" lon="104.7766178"><ele>305.94</ele><time>2026-01-14T18:25:30.000Z</time></trkpt>
        <trkpt lat="29.0186561" lon="104.7767187"><ele>306.64</ele><time>2026-01-14T18:25:38.000Z</time></trkpt>
        <trkpt lat="29.0186341" lon="104.7768222"><ele>306.5</ele><time>2026-01-14T18:25:46.000Z</time></trkpt>
        <trkpt lat="29.0185809" lon="104.7769107"><ele>306.49</ele><time>2026-01-14T18:25:54.000Z</time></trkpt>
        <trkpt lat="29.018513" lon="104.7769863"><ele>306.75</ele><time>2026-01-14T18:26:02.000Z</time></trkpt>
        <trkpt lat="29.0184463" lon="104.7770616"><ele>307.05</ele><time>2026-01-14T18:26:10.000Z</time></trkpt>
        <trkpt lat="29.0183883" lon="104.7771438"><ele>307.49</ele><time>2026-01-14T18:26:18.000Z</time></trkpt>
        <trkpt lat="29.0183182" lon="104.7772239"><ele>308.13</ele><time>2026-01-14T18:26:28.000Z</time></trkpt>
        <trkpt lat="29.0182622" lon="104.7773091"><ele>308.33</ele><time>2026-01-14T18:26:36.000Z</time></trkpt>
        <trkpt lat="29.0182204" lon="104.7774193"><ele>308.52</ele><time>2026-01-14T18:26:46.000Z</time></trkpt>
        <trkpt lat="29.0181998" lon="104.7775349"><ele>309.66</ele><time>2026-01-14T18:26:54.000Z</time></trkpt>
        <trkpt lat="29.0182206" lon="104.7776471"><ele>310.17</ele><time>2026-01-14T18:27:02.000Z</time></trkpt>
        <trkpt lat="29.0182535" lon="104.7777561"><ele>310.79</ele><time>2026-01-14T18:27:10.000Z</time></trkpt>
        <trkpt lat="29.0183281" lon="104.7778302"><ele>311.36</ele><time>2026-01-14T18:27:18.000Z</time></trkpt>
        <trkpt lat="29.0184192" lon="104.7778762"><ele>311.61</ele><time>2026-01-14T18:27:26.000Z</time></trkpt>
        <trkpt lat="29.0185156" lon="104.7778965"><ele>312.32</ele><time>2026-01-14T18:27:34.000Z</time></trkpt>
        <trkpt lat="29.0186264" lon="104.7778985"><ele>313.93</ele><time>2026-01-14T18:27:44.000Z</time></trkpt>
        <trkpt lat="29.0187308" lon="104.7778885"><ele>315.44</ele><time>2026-01-14T18:27:54.000Z</time></trkpt>
        <trkpt lat="29.0187302" lon="104.7779564"><ele>317.29</ele><time>2026-01-14T18:28:10.000Z</time></trkpt>
        <trkpt lat="29.0186367" lon="104.7779925"><ele>318.51</ele><time>2026-01-14T18:28:22.000Z</time></trkpt>
        <trkpt lat="29.0185276" lon="104.7780222"><ele>319.89</ele><time>2026-01-14T18:28:32.000Z</time></trkpt>
        <trkpt lat="29.0184165" lon="104.7780333"><ele>321.45</ele><time>2026-01-14T18:28:42.000Z</time></trkpt>
        <trkpt lat="29.0183132" lon="104.7780203"><ele>322.98</ele><time>2026-01-14T18:28:52.000Z</time></trkpt>
        <trkpt lat="29.0182171" lon="104.777961"><ele>323.94</ele><time>2026-01-14T18:29:02.000Z</time></trkpt>
        <trkpt lat="29.0181409" lon="104.7778694"><ele>324.68</ele><time>2026-01-14T18:29:12.000Z</time></trkpt>
        <trkpt lat="29.0180839" lon="104.7777583"><ele>324.97</ele><time>2026-01-14T18:29:22.000Z</time></trkpt>
        <trkpt lat="29.018052" lon="104.777647"><ele>324.75</ele><time>2026-01-14T18:29:30.000Z</time></trkpt>
        <trkpt lat="29.0180497" lon="104.777532"><ele>324.22</ele><time>2026-01-14T18:29:38.000Z</time></trkpt>
        <trkpt lat="29.0180845" lon="104.7774273"><ele>323.73</ele><time>2026-01-14T18:29:46.000Z</time></trkpt>
        <trkpt lat="29.0181267" lon="104.7773243"><ele>323.27</ele><time>2026-01-14T18:29:54.000Z</time></trkpt>
        <trkpt lat="29.0181404" lon="104.77722"><ele>323.61</ele><time>2026-01-14T18:30:02.000Z</time></trkpt>
        <trkpt lat="29.0181232" lon="104.7771002"><ele>324.42</ele><time>2026-01-14T18:30:12.000Z</time></trkpt>
        <trkpt lat="29.0180695" lon="104.776993"><ele>325.68</ele><time>2026-01-14T18:30:24.000Z</time></trkpt>
        <trkpt lat="29.0179841" lon="104.7769299"><ele>327.77</ele><time>2026-01-14T18:30:36.000Z</time></trkpt>
        <trkpt lat="29.017902" lon="104.7768555"><ele>329.87</ele><time>2026-01-14T18:30:48.000Z</time></trkpt>
        <trkpt lat="29.017813" lon="104.7768081"><ele>332.23</ele><time>2026-01-14T18:30:58.000Z</time></trkpt>
        <trkpt lat="29.0177201" lon="104.7767462"><ele>333.52</ele><time>2026-01-14T18:31:08.000Z</time></trkpt>
        <trkpt lat="29.0176301" lon="104.7766871"><ele>334.88</ele><time>2026-01-14T18:31:18.000Z</time></trkpt>
        <trkpt lat="29.0175463" lon="104.77661"><ele>336.26</ele><time>2026-01-14T18:31:30.000Z</time></trkpt>
        <trkpt lat="29.017472" lon="104.7765338"><ele>338.12</ele><time>2026-01-14T18:31:40.000Z</time></trkpt>
        <trkpt lat="29.0174096" lon="104.7764492"><ele>338.7</ele><time>2026-01-14T18:31:50.000Z</time></trkpt>
        <trkpt lat="29.0173456" lon="104.7763623"><ele>339.05</ele><time>2026-01-14T18:32:00.000Z</time></trkpt>
        <trkpt lat="29.0172626" lon="104.7763092"><ele>339.04</ele><time>2026-01-14T18:32:10.000Z</time></trkpt>
        <trkpt lat="29.0171717" lon="104.7762863"><ele>338.92</ele><time>2026-01-14T18:32:18.000Z</time></trkpt>
        <trkpt lat="29.0170728" lon="104.7763019"><ele>339.61</ele><time>2026-01-14T18:32:38.000Z</time></trkpt>
        <trkpt lat="29.0169782" lon="104.7763385"><ele>340.87</ele><time>2026-01-14T18:32:52.000Z</time></trkpt>
        <trkpt lat="29.0168848" lon="104.7763785"><ele>341.5</ele><time>2026-01-14T18:33:02.000Z</time></trkpt>
        <trkpt lat="29.0167932" lon="104.77642"><ele>341.8</ele><time>2026-01-14T18:33:12.000Z</time></trkpt>
        <trkpt lat="29.0167037" lon="104.7764138"><ele>341.42</ele><time>2026-01-14T18:33:22.000Z</time></trkpt>
        <trkpt lat="29.0166214" lon="104.7763525"><ele>341.35</ele><time>2026-01-14T18:33:34.000Z</time></trkpt>
        <trkpt lat="29.0165465" lon="104.7762802"><ele>340.85</ele><time>2026-01-14T18:33:42.000Z</time></trkpt>
        <trkpt lat="29.0165279" lon="104.7762157"><ele>339.84</ele><time>2026-01-14T18:33:50.000Z</time></trkpt>
        <trkpt lat="29.0164757" lon="104.7761277"><ele>338.84</ele><time>2026-01-14T18:34:02.000Z</time></trkpt>
        <trkpt lat="29.0163833" lon="104.7761272"><ele>337.48</ele><time>2026-01-14T18:34:12.000Z</time></trkpt>
        <trkpt lat="29.0163126" lon="104.776205"><ele>335.64</ele><time>2026-01-14T18:34:26.000Z</time></trkpt>
        <trkpt lat="29.0162144" lon="104.7762347"><ele>333.34</ele><time>2026-01-14T18:34:36.000Z</time></trkpt>
        <trkpt lat="29.0161176" lon="104.7762589"><ele>329.94</ele><time>2026-01-14T18:34:46.000Z</time></trkpt>
        <trkpt lat="29.0160091" lon="104.7762609"><ele>328.25</ele><time>2026-01-14T18:34:58.000Z</time></trkpt>
        <trkpt lat="29.0159059" lon="104.7762267"><ele>326.75</ele><time>2026-01-14T18:35:18.000Z</time></trkpt>
        <trkpt lat="29.0157959" lon="104.7761979"><ele>326.56</ele><time>2026-01-14T18:35:28.000Z</time></trkpt>
        <trkpt lat="29.0156938" lon="104.7762124"><ele>325.4</ele><time>2026-01-14T18:35:36.000Z</time></trkpt>
        <trkpt lat="29.0155953" lon="104.7762281"><ele>324.9</ele><time>2026-01-14T18:35:50.000Z</time></trkpt>
        <trkpt lat="29.0155001" lon="104.7762544"><ele>324.73</ele><time>2026-01-14T18:36:00.000Z</time></trkpt>
        <trkpt lat="29.0154099" lon="104.7762742"><ele>324.17</ele><time>2026-01-14T18:36:08.000Z</time></trkpt>
        <trkpt lat="29.0153136" lon="104.7763076"><ele>324.07</ele><time>2026-01-14T18:36:20.000Z</time></trkpt>
        <trkpt lat="29.0152102" lon="104.7763185"><ele>324.37</ele><time>2026-01-14T18:36:32.000Z</time></trkpt>
        <trkpt lat="29.0151107" lon="104.7763614"><ele>323.67</ele><time>2026-01-14T18:36:42.000Z</time></trkpt>
        <trkpt lat="29.0150291" lon="104.7764357"><ele>323.52</ele><time>2026-01-14T18:36:54.000Z</time></trkpt>
        <trkpt lat="29.0149558" lon="104.7765142"><ele>324.35</ele><time>2026-01-14T18:37:04.000Z</time></trkpt>
        <trkpt lat="29.0148734" lon="104.7765704"><ele>323.96</ele><time>2026-01-14T18:37:14.000Z</time></trkpt>
        <trkpt lat="29.0147845" lon="104.7765744"><ele>322.56</ele><time>2026-01-14T18:37:24.000Z</time></trkpt>
        <trkpt lat="29.0146885" lon="104.7765993"><ele>322.51</ele><time>2026-01-14T18:37:36.000Z</time></trkpt>
        <trkpt lat="29.0145912" lon="104.7766254"><ele>321.92</ele><time>2026-01-14T18:37:48.000Z</time></trkpt>
        <trkpt lat="29.0144896" lon="104.7766148"><ele>319.59</ele><time>2026-01-14T18:38:00.000Z</time></trkpt>
        <trkpt lat="29.0143983" lon="104.776571"><ele>318.82</ele><time>2026-01-14T18:38:10.000Z</time></trkpt>
        <trkpt lat="29.0143203" lon="104.7764965"><ele>317.96</ele><time>2026-01-14T18:38:20.000Z</time></trkpt>
        <trkpt lat="29.0142593" lon="104.7763909"><ele>317.19</ele><time>2026-01-14T18:38:30.000Z</time></trkpt>
        <trkpt lat="29.0141872" lon="104.7763137"><ele>316.78</ele><time>2026-01-14T18:38:40.000Z</time></trkpt>
        <trkpt lat="29.0141056" lon="104.7762569"><ele>316.16</ele><time>2026-01-14T18:38:50.000Z</time></trkpt>
        <trkpt lat="29.0140142" lon="104.7762206"><ele>314.61</ele><time>2026-01-14T18:39:00.000Z</time></trkpt>
        <trkpt lat="29.0139197" lon="104.7761797"><ele>312.64</ele><time>2026-01-14T18:39:10.000Z</time></trkpt>
        <trkpt lat="29.0138318" lon="104.7761323"><ele>310.33</ele><time>2026-01-14T18:39:20.000Z</time></trkpt>
        <trkpt lat="29.0137381" lon="104.7761146"><ele>308.91</ele><time>2026-01-14T18:39:32.000Z</time></trkpt>
        <trkpt lat="29.01367" lon="104.776191"><ele>308.58</ele><time>2026-01-14T18:39:42.000Z</time></trkpt>
        <trkpt lat="29.0136003" lon="104.7761704"><ele>308.35</ele><time>2026-01-14T18:40:00.000Z</time></trkpt>
        <trkpt lat="29.0136003" lon="104.7761704"><ele>308.35</ele><time>2026-01-14T18:41:10.000Z</time></trkpt>
        <trkpt lat="29.01364" lon="104.7762601"><ele>307.63</ele><time>2026-01-14T18:41:14.000Z</time></trkpt>
        <trkpt lat="29.01364" lon="104.7762601"><ele>307.63</ele><time>2026-01-14T18:42:16.000Z</time></trkpt>
        <trkpt lat="29.0136273" lon="104.7763623"><ele>308.21</ele><time>2026-01-14T18:42:28.000Z</time></trkpt>
        <trkpt lat="29.0136273" lon="104.7763623"><ele>308.21</ele><time>2026-01-14T18:42:54.000Z</time></trkpt>
        <trkpt lat="29.0136401" lon="104.7764756"><ele>308.92</ele><time>2026-01-14T18:43:06.000Z</time></trkpt>
        <trkpt lat="29.0136401" lon="104.7764756"><ele>308.92</ele><time>2026-01-14T18:43:18.000Z</time></trkpt>
        <trkpt lat="29.013614" lon="104.7765642"><ele>309.42</ele><time>2026-01-14T18:43:36.000Z</time></trkpt>
        <trkpt lat="29.013664" lon="104.7766291"><ele>309.8</ele><time>2026-01-14T18:44:04.000Z</time></trkpt>
        <trkpt lat="29.0137528" lon="104.776663"><ele>310.56</ele><time>2026-01-14T18:44:22.000Z</time></trkpt>
        <trkpt lat="29.0138399" lon="104.7767086"><ele>311.59</ele><time>2026-01-14T18:44:44.000Z</time></trkpt>
        <trkpt lat="29.0139342" lon="104.7767453"><ele>312.25</ele><time>2026-01-14T18:45:04.000Z</time></trkpt>
        <trkpt lat="29.0140353" lon="104.7767423"><ele>313</ele><time>2026-01-14T18:45:26.000Z</time></trkpt>
        <trkpt lat="29.0140871" lon="104.7766613"><ele>314.33</ele><time>2026-01-14T18:45:48.000Z</time></trkpt>
        <trkpt lat="29.0141592" lon="104.7765973"><ele>315.99</ele><time>2026-01-14T18:46:08.000Z</time></trkpt>
        <trkpt lat="29.014237" lon="104.7766156"><ele>317.75</ele><time>2026-01-14T18:46:38.000Z</time></trkpt>
        <trkpt lat="29.0143249" lon="104.7766274"><ele>319.55</ele><time>2026-01-14T18:46:58.000Z</time></trkpt>
        <trkpt lat="29.0144003" lon="104.7766862"><ele>321.2</ele><time>2026-01-14T18:47:24.000Z</time></trkpt>
        <trkpt lat="29.0144854" lon="104.7767226"><ele>322.54</ele><time>2026-01-14T18:47:48.000Z</time></trkpt>
        <trkpt lat="29.014559" lon="104.7767904"><ele>323.65</ele><time>2026-01-14T18:48:14.000Z</time></trkpt>
        <trkpt lat="29.014632" lon="104.7768576"><ele>324.42</ele><time>2026-01-14T18:48:32.000Z</time></trkpt>
        <trkpt lat="29.0146774" lon="104.776949"><ele>324.99</ele><time>2026-01-14T18:49:00.000Z</time></trkpt>
        <trkpt lat="29.0147225" lon="104.777047"><ele>325.61</ele><time>2026-01-14T18:49:26.000Z</time></trkpt>
        <trkpt lat="29.0147968" lon="104.7771222"><ele>325.2</ele><time>2026-01-14T18:49:38.000Z</time></trkpt>
        <trkpt lat="29.0148598" lon="104.7772016"><ele>323.88</ele><time>2026-01-14T18:50:00.000Z</time></trkpt>
        <trkpt lat="29.0149363" lon="104.7772578"><ele>323.71</ele><time>2026-01-14T18:50:30.000Z</time></trkpt>
        <trkpt lat="29.0149998" lon="104.7773327"><ele>324.26</ele><time>2026-01-14T18:50:52.000Z</time></trkpt>
        <trkpt lat="29.0150267" lon="104.7774332"><ele>324.19</ele><time>2026-01-14T18:51:16.000Z</time></trkpt>
        <trkpt lat="29.0150267" lon="104.7774332"><ele>324.19</ele><time>2026-01-14T18:51:22.000Z</time></trkpt>
        <trkpt lat="29.0150676" lon="104.7775332"><ele>324.19</ele><time>2026-01-14T18:51:24.000Z</time></trkpt>
        <trkpt lat="29.0150676" lon="104.7775332"><ele>324.19</ele><time>2026-01-14T18:51:42.000Z</time></trkpt>
        <trkpt lat="29.0150751" lon="104.7775704"><ele>324.92</ele><time>2026-01-14T18:51:48.000Z</time></trkpt>
        <trkpt lat="29.0150348" lon="104.7776433"><ele>325.17</ele><time>2026-01-14T18:52:20.000Z</time></trkpt>
        <trkpt lat="29.0150729" lon="104.7777067"><ele>325.39</ele><time>2026-01-14T18:52:46.000Z</time></trkpt>
        <trkpt lat="29.0150729" lon="104.7777067"><ele>325.39</ele><time>2026-01-14T18:54:40.000Z</time></trkpt>
        <trkpt lat="29.0150822" lon="104.7778124"><ele>324.85</ele><time>2026-01-14T18:55:10.000Z</time></trkpt>
        <trkpt lat="29.0150822" lon="104.7778124"><ele>324.85</ele><time>2026-01-14T18:55:32.000Z</time></trkpt>
        <trkpt lat="29.0150822" lon="104.7778124"><ele>324.85</ele><time>2026-01-14T18:56:54.000Z</time></trkpt>
        <trkpt lat="29.0150822" lon="104.7778124"><ele>324.85</ele><time>2026-01-14T18:57:02.000Z</time></trkpt>
        <trkpt lat="29.0150822" lon="104.7778124"><ele>324.85</ele><time>2026-01-14T18:58:26.000Z</time></trkpt>
        <trkpt lat="29.0150822" lon="104.7778124"><ele>324.85</ele><time>2026-01-14T18:58:36.000Z</time></trkpt>
        <trkpt lat="29.0150822" lon="104.7778124"><ele>324.85</ele><time>2026-01-14T18:59:36.000Z</time></trkpt>
        <trkpt lat="29.0150692" lon="104.778018"><ele>323.3</ele><time>2026-01-14T18:59:40.000Z</time></trkpt>
        <trkpt lat="29.0150692" lon="104.778018"><ele>323.3</ele><time>2026-01-14T19:00:24.000Z</time></trkpt>
        <trkpt lat="29.0150668" lon="104.7781299"><ele>317.06</ele><time>2026-01-14T19:00:58.000Z</time></trkpt>
        <trkpt lat="29.0150527" lon="104.7781519"><ele>311.7</ele><time>2026-01-14T19:01:02.000Z</time></trkpt>
        <trkpt lat="29.0150527" lon="104.7781519"><ele>311.7</ele><time>2026-01-14T19:01:42.000Z</time></trkpt>
        <trkpt lat="29.0150527" lon="104.7781519"><ele>311.7</ele><time>2026-01-14T19:02:08.000Z</time></trkpt>
        <trkpt lat="29.0150527" lon="104.7781519"><ele>311.7</ele><time>2026-01-14T19:02:24.000Z</time></trkpt>
        <trkpt lat="29.0150527" lon="104.7781519"><ele>311.7</ele><time>2026-01-14T19:02:26.000Z</time></trkpt>
        <trkpt lat="29.0150527" lon="104.7781519"><ele>311.7</ele><time>2026-01-14T19:03:06.000Z</time></trkpt>
        <trkpt lat="29.0151403" lon="104.7781263"><ele>308.08</ele><time>2026-01-14T19:03:12.000Z</time></trkpt>
        <trkpt lat="29.0151403" lon="104.7781263"><ele>308.08</ele><time>2026-01-14T19:03:44.000Z</time></trkpt>
        <trkpt lat="29.0151276" lon="104.7782292"><ele>302.33</ele><time>2026-01-14T19:05:38.000Z</time></trkpt>
        <trkpt lat="29.0150346" lon="104.7782135"><ele>295.88</ele><time>2026-01-14T19:07:08.000Z</time></trkpt>
        <trkpt lat="29.0150346" lon="104.7782135"><ele>295.88</ele><time>2026-01-14T19:08:20.000Z</time></trkpt>
        <trkpt lat="29.015086" lon="104.7783087"><ele>291.06</ele><time>2026-01-14T19:08:28.000Z</time></trkpt>
        <trkpt lat="29.015086" lon="104.7783087"><ele>291.06</ele><time>2026-01-14T19:10:16.000Z</time></trkpt>
        <trkpt lat="29.0151775" lon="104.7783179"><ele>285.75</ele><time>2026-01-14T19:10:54.000Z</time></trkpt>
        <trkpt lat="29.015277" lon="104.7782837"><ele>283.58</ele><time>2026-01-14T19:11:08.000Z</time></trkpt>
        <trkpt lat="29.0153658" lon="104.778247"><ele>281.12</ele><time>2026-01-14T19:11:18.000Z</time></trkpt>
        <trkpt lat="29.0154326" lon="104.7783032"><ele>279.49</ele><time>2026-01-14T19:11:28.000Z</time></trkpt>
        <trkpt lat="29.0154548" lon="104.778407"><ele>280.64</ele><time>2026-01-14T19:11:46.000Z</time></trkpt>
        <trkpt lat="29.0155094" lon="104.7785075"><ele>280.73</ele><time>2026-01-14T19:12:32.000Z</time></trkpt>
        <trkpt lat="29.0155561" lon="104.7786094"><ele>280.9</ele><time>2026-01-14T19:12:42.000Z</time></trkpt>
        <trkpt lat="29.0155956" lon="104.7787265"><ele>279.77</ele><time>2026-01-14T19:12:52.000Z</time></trkpt>
        <trkpt lat="29.0156298" lon="104.7788317"><ele>279.03</ele><time>2026-01-14T19:13:02.000Z</time></trkpt>
        <trkpt lat="29.0157015" lon="104.7789113"><ele>279.41</ele><time>2026-01-14T19:13:12.000Z</time></trkpt>
        <trkpt lat="29.0157673" lon="104.7789966"><ele>278.57</ele><time>2026-01-14T19:13:20.000Z</time></trkpt>
        <trkpt lat="29.0158447" lon="104.7790828"><ele>278.46</ele><time>2026-01-14T19:13:28.000Z</time></trkpt>
        <trkpt lat="29.0159361" lon="104.7791026"><ele>278</ele><time>2026-01-14T19:13:34.000Z</time></trkpt>
        <trkpt lat="29.0160288" lon="104.7791176"><ele>278.43</ele><time>2026-01-14T19:13:42.000Z</time></trkpt>
        <trkpt lat="29.0161246" lon="104.7791395"><ele>280.11</ele><time>2026-01-14T19:13:52.000Z</time></trkpt>
        <trkpt lat="29.0161926" lon="104.7792081"><ele>281.9</ele><time>2026-01-14T19:14:06.000Z</time></trkpt>
        <trkpt lat="29.0162479" lon="104.7792957"><ele>284.32</ele><time>2026-01-14T19:14:18.000Z</time></trkpt>
        <trkpt lat="29.0163135" lon="104.7793772"><ele>285.35</ele><time>2026-01-14T19:14:34.000Z</time></trkpt>
        <trkpt lat="29.0163389" lon="104.7794052"><ele>286.22</ele><time>2026-01-14T19:14:38.000Z</time></trkpt>
        <trkpt lat="29.0163718" lon="104.7794761"><ele>286.92</ele><time>2026-01-14T19:15:26.000Z</time></trkpt>
        <trkpt lat="29.0163682" lon="104.7795745"><ele>287.39</ele><time>2026-01-14T19:15:42.000Z</time></trkpt>
        <trkpt lat="29.0163659" lon="104.7796951"><ele>287.44</ele><time>2026-01-14T19:15:52.000Z</time></trkpt>
        <trkpt lat="29.0163713" lon="104.7797664"><ele>287.44</ele><time>2026-01-14T19:15:58.000Z</time></trkpt>
        <trkpt lat="29.0164055" lon="104.7798586"><ele>287.63</ele><time>2026-01-14T19:16:16.000Z</time></trkpt>
        <trkpt lat="29.0164842" lon="104.7799121"><ele>287.33</ele><time>2026-01-14T19:16:34.000Z</time></trkpt>
        <trkpt lat="29.0165763" lon="104.7799495"><ele>287.86</ele><time>2026-01-14T19:17:08.000Z</time></trkpt>
        <trkpt lat="29.0166411" lon="104.7800218"><ele>288.57</ele><time>2026-01-14T19:17:22.000Z</time></trkpt>
        <trkpt lat="29.0167147" lon="104.7800905"><ele>290.83</ele><time>2026-01-14T19:17:40.000Z</time></trkpt>
        <trkpt lat="29.0167783" lon="104.7801725"><ele>293.59</ele><time>2026-01-14T19:17:56.000Z</time></trkpt>
        <trkpt lat="29.0168331" lon="104.7802709"><ele>295.01</ele><time>2026-01-14T19:18:12.000Z</time></trkpt>
        <trkpt lat="29.0168906" lon="104.7803645"><ele>296.46</ele><time>2026-01-14T19:18:24.000Z</time></trkpt>
        <trkpt lat="29.0169357" lon="104.7804714"><ele>297.89</ele><time>2026-01-14T19:18:40.000Z</time></trkpt>
        <trkpt lat="29.0170207" lon="104.7805061"><ele>299.81</ele><time>2026-01-14T19:18:54.000Z</time></trkpt>
        <trkpt lat="29.0171158" lon="104.7805128"><ele>299.7</ele><time>2026-01-14T19:19:12.000Z</time></trkpt>
        <trkpt lat="29.0170919" lon="104.7805751"><ele>300.2</ele><time>2026-01-14T19:19:28.000Z</time></trkpt>
        <trkpt lat="29.0170451" lon="104.780672"><ele>300.26</ele><time>2026-01-14T19:19:42.000Z</time></trkpt>
        <trkpt lat="29.0170305" lon="104.7807818"><ele>300.33</ele><time>2026-01-14T19:20:30.000Z</time></trkpt>
        <trkpt lat="29.016981" lon="104.7808792"><ele>301.72</ele><time>2026-01-14T19:20:56.000Z</time></trkpt>
        <trkpt lat="29.0169212" lon="104.7809765"><ele>302.93</ele><time>2026-01-14T19:21:12.000Z</time></trkpt>
        <trkpt lat="29.0169019" lon="104.7810849"><ele>301.92</ele><time>2026-01-14T19:21:30.000Z</time></trkpt>
        <trkpt lat="29.0168636" lon="104.7811871"><ele>302.02</ele><time>2026-01-14T19:21:50.000Z</time></trkpt>
        <trkpt lat="29.0168089" lon="104.7812777"><ele>303.58</ele><time>2026-01-14T19:22:10.000Z</time></trkpt>
        <trkpt lat="29.0167552" lon="104.7813652"><ele>304.92</ele><time>2026-01-14T19:22:26.000Z</time></trkpt>
        <trkpt lat="29.016725" lon="104.7814713"><ele>305.68</ele><time>2026-01-14T19:22:46.000Z</time></trkpt>
        <trkpt lat="29.0167143" lon="104.7815037"><ele>305.61</ele><time>2026-01-14T19:22:48.000Z</time></trkpt>
        <trkpt lat="29.0167155" lon="104.781585"><ele>305.61</ele><time>2026-01-14T19:23:18.000Z</time></trkpt>
        <trkpt lat="29.0167365" lon="104.781684"><ele>305.85</ele><time>2026-01-14T19:23:34.000Z</time></trkpt>
        <trkpt lat="29.0167365" lon="104.781684"><ele>305.85</ele><time>2026-01-14T19:23:58.000Z</time></trkpt>
        <trkpt lat="29.0168202" lon="104.7817558"><ele>307.61</ele><time>2026-01-14T19:24:00.000Z</time></trkpt>
        <trkpt lat="29.0168202" lon="104.7817558"><ele>307.61</ele><time>2026-01-14T19:24:36.000Z</time></trkpt>
        <trkpt lat="29.0168708" lon="104.7818461"><ele>310.34</ele><time>2026-01-14T19:24:54.000Z</time></trkpt>
        <trkpt lat="29.0169606" lon="104.7818816"><ele>313.98</ele><time>2026-01-14T19:25:12.000Z</time></trkpt>
        <trkpt lat="29.0169624" lon="104.7818662"><ele>315.82</ele><time>2026-01-14T19:25:18.000Z</time></trkpt>
        <trkpt lat="29.0169511" lon="104.7817402"><ele>316.58</ele><time>2026-01-14T19:26:20.000Z</time></trkpt>
        <trkpt lat="29.0170424" lon="104.7817143"><ele>317.72</ele><time>2026-01-14T19:26:42.000Z</time></trkpt>
        <trkpt lat="29.0171367" lon="104.7816759"><ele>319.05</ele><time>2026-01-14T19:26:58.000Z</time></trkpt>
        <trkpt lat="29.0171798" lon="104.7817448"><ele>321.17</ele><time>2026-01-14T19:27:22.000Z</time></trkpt>
        <trkpt lat="29.0172347" lon="104.7818299"><ele>322.14</ele><time>2026-01-14T19:27:36.000Z</time></trkpt>
        <trkpt lat="29.0172601" lon="104.7819458"><ele>323.02</ele><time>2026-01-14T19:27:48.000Z</time></trkpt>
        <trkpt lat="29.0172451" lon="104.782062"><ele>324.44</ele><time>2026-01-14T19:28:02.000Z</time></trkpt>
        <trkpt lat="29.0172564" lon="104.7821731"><ele>326.66</ele><time>2026-01-14T19:28:20.000Z</time></trkpt>
        <trkpt lat="29.0173206" lon="104.7822425"><ele>328.92</ele><time>2026-01-14T19:28:28.000Z</time></trkpt>
        <trkpt lat="29.0173733" lon="104.7822701"><ele>330.69</ele><time>2026-01-14T19:28:36.000Z</time></trkpt>
        <trkpt lat="29.0173733" lon="104.7822701"><ele>330.69</ele><time>2026-01-14T19:30:34.000Z</time></trkpt>
        <trkpt lat="29.0173733" lon="104.7822701"><ele>330.69</ele><time>2026-01-14T19:30:36.000Z</time></trkpt>
        <trkpt lat="29.0173733" lon="104.7822701"><ele>330.69</ele><time>2026-01-14T19:31:24.000Z</time></trkpt>
        <trkpt lat="29.0173733" lon="104.7822701"><ele>330.69</ele><time>2026-01-14T19:31:48.000Z</time></trkpt>
        <trkpt lat="29.0173733" lon="104.7822701"><ele>330.69</ele><time>2026-01-14T19:32:42.000Z</time></trkpt>
        <trkpt lat="29.0174451" lon="104.7823264"><ele>332.07</ele><time>2026-01-14T19:32:44.000Z</time></trkpt>
        <trkpt lat="29.0174451" lon="104.7823264"><ele>332.07</ele><time>2026-01-14T19:33:56.000Z</time></trkpt>
        <trkpt lat="29.0175422" lon="104.7823098"><ele>340.75</ele><time>2026-01-14T19:34:18.000Z</time></trkpt>
        <trkpt lat="29.0174748" lon="104.7822916"><ele>343.98</ele><time>2026-01-14T19:35:04.000Z</time></trkpt>
        <trkpt lat="29.0173815" lon="104.7822983"><ele>344.89</ele><time>2026-01-14T19:35:18.000Z</time></trkpt>
        <trkpt lat="29.0172787" lon="104.7822965"><ele>346.04</ele><time>2026-01-14T19:35:30.000Z</time></trkpt>
        <trkpt lat="29.0171699" lon="104.7823017"><ele>345.16</ele><time>2026-01-14T19:35:42.000Z</time></trkpt>
        <trkpt lat="29.0170663" lon="104.7823124"><ele>343.89</ele><time>2026-01-14T19:35:54.000Z</time></trkpt>
        <trkpt lat="29.0169643" lon="104.7823254"><ele>343.29</ele><time>2026-01-14T19:36:06.000Z</time></trkpt>
        <trkpt lat="29.0168676" lon="104.7823379"><ele>343.06</ele><time>2026-01-14T19:36:16.000Z</time></trkpt>
        <trkpt lat="29.0167661" lon="104.7823501"><ele>343.3</ele><time>2026-01-14T19:36:26.000Z</time></trkpt>
        <trkpt lat="29.0166711" lon="104.782351"><ele>343.66</ele><time>2026-01-14T19:36:36.000Z</time></trkpt>
        <trkpt lat="29.016575" lon="104.7823203"><ele>344.25</ele><time>2026-01-14T19:36:48.000Z</time></trkpt>
        <trkpt lat="29.0164897" lon="104.7822686"><ele>344.43</ele><time>2026-01-14T19:36:58.000Z</time></trkpt>
        <trkpt lat="29.0164044" lon="104.7822016"><ele>343.99</ele><time>2026-01-14T19:37:08.000Z</time></trkpt>
        <trkpt lat="29.0163181" lon="104.7821368"><ele>343.75</ele><time>2026-01-14T19:37:18.000Z</time></trkpt>
        <trkpt lat="29.0162334" lon="104.782069"><ele>343.67</ele><time>2026-01-14T19:37:28.000Z</time></trkpt>
        <trkpt lat="29.016146" lon="104.7819998"><ele>344.18</ele><time>2026-01-14T19:37:38.000Z</time></trkpt>
        <trkpt lat="29.0160679" lon="104.7819331"><ele>344</ele><time>2026-01-14T19:37:46.000Z</time></trkpt>
        <trkpt lat="29.0159934" lon="104.7818695"><ele>342.76</ele><time>2026-01-14T19:37:54.000Z</time></trkpt>
        <trkpt lat="29.0159048" lon="104.7818076"><ele>340.69</ele><time>2026-01-14T19:38:04.000Z</time></trkpt>
        <trkpt lat="29.0158104" lon="104.7817465"><ele>339.2</ele><time>2026-01-14T19:38:14.000Z</time></trkpt>
        <trkpt lat="29.015713" lon="104.7816954"><ele>338.11</ele><time>2026-01-14T19:38:24.000Z</time></trkpt>
        <trkpt lat="29.0156123" lon="104.7816597"><ele>337.59</ele><time>2026-01-14T19:38:34.000Z</time></trkpt>
        <trkpt lat="29.0155088" lon="104.781623"><ele>336.78</ele><time>2026-01-14T19:38:44.000Z</time></trkpt>
        <trkpt lat="29.0154085" lon="104.7815855"><ele>335.71</ele><time>2026-01-14T19:38:54.000Z</time></trkpt>
        <trkpt lat="29.0153054" lon="104.7815446"><ele>334.53</ele><time>2026-01-14T19:39:04.000Z</time></trkpt>
        <trkpt lat="29.0152117" lon="104.7815102"><ele>333.82</ele><time>2026-01-14T19:39:12.000Z</time></trkpt>
        <trkpt lat="29.0151094" lon="104.781487"><ele>333.38</ele><time>2026-01-14T19:39:22.000Z</time></trkpt>
        <trkpt lat="29.0150129" lon="104.7814763"><ele>333.38</ele><time>2026-01-14T19:39:32.000Z</time></trkpt>
        <trkpt lat="29.0149888" lon="104.7814787"><ele>334.56</ele><time>2026-01-14T19:39:34.000Z</time></trkpt>
        <trkpt lat="29.014952" lon="104.7814109"><ele>335.28</ele><time>2026-01-14T19:39:46.000Z</time></trkpt>
        <trkpt lat="29.0149421" lon="104.7812984"><ele>335.95</ele><time>2026-01-14T19:39:56.000Z</time></trkpt>
        <trkpt lat="29.0149694" lon="104.7811861"><ele>336.35</ele><time>2026-01-14T19:40:08.000Z</time></trkpt>
        <trkpt lat="29.0149816" lon="104.7810709"><ele>337.49</ele><time>2026-01-14T19:40:22.000Z</time></trkpt>
        <trkpt lat="29.0149808" lon="104.7809552"><ele>338.4</ele><time>2026-01-14T19:40:38.000Z</time></trkpt>
        <trkpt lat="29.0149702" lon="104.7808306"><ele>339.05</ele><time>2026-01-14T19:40:50.000Z</time></trkpt>
        <trkpt lat="29.0149674" lon="104.7807098"><ele>339.33</ele><time>2026-01-14T19:41:00.000Z</time></trkpt>
        <trkpt lat="29.0149694" lon="104.7805889"><ele>339.28</ele><time>2026-01-14T19:41:10.000Z</time></trkpt>
        <trkpt lat="29.0150031" lon="104.780515"><ele>339.41</ele><time>2026-01-14T19:41:22.000Z</time></trkpt>
        <trkpt lat="29.0150031" lon="104.780515"><ele>339.41</ele><time>2026-01-14T19:42:14.000Z</time></trkpt>
      </trkseg>
      <trkseg>
        <trkpt lat="29.0149672" lon="104.7806222"><ele>339.39</ele><time>2026-01-14T21:09:31.000Z</time></trkpt>
        <trkpt lat="29.0149672" lon="104.7806222"><ele>339.39</ele><time>2026-01-14T21:09:34.000Z</time></trkpt>
        <trkpt lat="29.0149668" lon="104.780736"><ele>337.59</ele><time>2026-01-14T21:09:44.000Z</time></trkpt>
        <trkpt lat="29.0149767" lon="104.780856"><ele>338.37</ele><time>2026-01-14T21:09:54.000Z</time></trkpt>
        <trkpt lat="29.014989" lon="104.7809628"><ele>339.02</ele><time>2026-01-14T21:10:04.000Z</time></trkpt>
        <trkpt lat="29.0150004" lon="104.7810707"><ele>339.23</ele><time>2026-01-14T21:10:14.000Z</time></trkpt>
        <trkpt lat="29.0149952" lon="104.7811809"><ele>338.89</ele><time>2026-01-14T21:10:24.000Z</time></trkpt>
        <trkpt lat="29.0149826" lon="104.7812872"><ele>338.61</ele><time>2026-01-14T21:10:34.000Z</time></trkpt>
        <trkpt lat="29.014964" lon="104.7813644"><ele>338.25</ele><time>2026-01-14T21:10:44.000Z</time></trkpt>
        <trkpt lat="29.0149482" lon="104.7814578"><ele>338.35</ele><time>2026-01-14T21:11:10.000Z</time></trkpt>
        <trkpt lat="29.0148889" lon="104.7815312"><ele>337.86</ele><time>2026-01-14T21:11:18.000Z</time></trkpt>
        <trkpt lat="29.0148073" lon="104.7815799"><ele>337.61</ele><time>2026-01-14T21:11:26.000Z</time></trkpt>
        <trkpt lat="29.0147136" lon="104.7816158"><ele>337.91</ele><time>2026-01-14T21:11:34.000Z</time></trkpt>
        <trkpt lat="29.0146235" lon="104.7816822"><ele>338.5</ele><time>2026-01-14T21:11:44.000Z</time></trkpt>
        <trkpt lat="29.0145335" lon="104.781742"><ele>339.12</ele><time>2026-01-14T21:12:00.000Z</time></trkpt>
        <trkpt lat="29.0144369" lon="104.7817779"><ele>340.08</ele><time>2026-01-14T21:12:16.000Z</time></trkpt>
        <trkpt lat="29.0143276" lon="104.781786"><ele>341.42</ele><time>2026-01-14T21:12:30.000Z</time></trkpt>
        <trkpt lat="29.0142122" lon="104.781774"><ele>342.82</ele><time>2026-01-14T21:12:40.000Z</time></trkpt>
        <trkpt lat="29.0141101" lon="104.781753"><ele>344.06</ele><time>2026-01-14T21:12:48.000Z</time></trkpt>
        <trkpt lat="29.0140113" lon="104.7817275"><ele>345.49</ele><time>2026-01-14T21:12:56.000Z</time></trkpt>
        <trkpt lat="29.0139199" lon="104.7817062"><ele>347.17</ele><time>2026-01-14T21:13:04.000Z</time></trkpt>
        <trkpt lat="29.0138191" lon="104.7817065"><ele>349.64</ele><time>2026-01-14T21:13:12.000Z</time></trkpt>
        <trkpt lat="29.0137284" lon="104.7817311"><ele>352.46</ele><time>2026-01-14T21:13:20.000Z</time></trkpt>
        <trkpt lat="29.013646" lon="104.7817923"><ele>354.52</ele><time>2026-01-14T21:13:30.000Z</time></trkpt>
        <trkpt lat="29.0135589" lon="104.7818655"><ele>355.09</ele><time>2026-01-14T21:13:40.000Z</time></trkpt>
        <trkpt lat="29.0134657" lon="104.7819379"><ele>355.28</ele><time>2026-01-14T21:13:50.000Z</time></trkpt>
        <trkpt lat="29.0133831" lon="104.7819976"><ele>354.98</ele><time>2026-01-14T21:13:58.000Z</time></trkpt>
        <trkpt lat="29.0132935" lon="104.7820647"><ele>354.87</ele><time>2026-01-14T21:14:08.000Z</time></trkpt>
        <trkpt lat="29.0132028" lon="104.7821375"><ele>355.01</ele><time>2026-01-14T21:14:18.000Z</time></trkpt>
        <trkpt lat="29.0131152" lon="104.7821967"><ele>354.85</ele><time>2026-01-14T21:14:26.000Z</time></trkpt>
        <trkpt lat="29.0130311" lon="104.7822432"><ele>354.81</ele><time>2026-01-14T21:14:34.000Z</time></trkpt>
        <trkpt lat="29.0129466" lon="104.7822895"><ele>354.86</ele><time>2026-01-14T21:14:42.000Z</time></trkpt>
        <trkpt lat="29.0128645" lon="104.7823361"><ele>355.18</ele><time>2026-01-14T21:14:50.000Z</time></trkpt>
        <trkpt lat="29.0127823" lon="104.7823812"><ele>355.67</ele><time>2026-01-14T21:14:58.000Z</time></trkpt>
        <trkpt lat="29.0126894" lon="104.7824328"><ele>355.99</ele><time>2026-01-14T21:15:08.000Z</time></trkpt>
        <trkpt lat="29.0125917" lon="104.7824857"><ele>355.42</ele><time>2026-01-14T21:15:18.000Z</time></trkpt>
        <trkpt lat="29.0124952" lon="104.7825456"><ele>354.87</ele><time>2026-01-14T21:15:28.000Z</time></trkpt>
        <trkpt lat="29.0123976" lon="104.7826022"><ele>354.68</ele><time>2026-01-14T21:15:38.000Z</time></trkpt>
        <trkpt lat="29.0122974" lon="104.7826502"><ele>354.32</ele><time>2026-01-14T21:15:48.000Z</time></trkpt>
        <trkpt lat="29.0122063" lon="104.7826884"><ele>354.24</ele><time>2026-01-14T21:15:56.000Z</time></trkpt>
        <trkpt lat="29.0121078" lon="104.7827124"><ele>354.13</ele><time>2026-01-14T21:16:06.000Z</time></trkpt>
        <trkpt lat="29.0120137" lon="104.7827446"><ele>353.87</ele><time>2026-01-14T21:16:16.000Z</time></trkpt>
        <trkpt lat="29.0119143" lon="104.7827695"><ele>353.14</ele><time>2026-01-14T21:16:26.000Z</time></trkpt>
        <trkpt lat="29.0118143" lon="104.7827972"><ele>352.13</ele><time>2026-01-14T21:16:36.000Z</time></trkpt>
        <trkpt lat="29.0117151" lon="104.7828383"><ele>351.11</ele><time>2026-01-14T21:16:46.000Z</time></trkpt>
        <trkpt lat="29.0116126" lon="104.7828727"><ele>349.48</ele><time>2026-01-14T21:16:56.000Z</time></trkpt>
        <trkpt lat="29.011511" lon="104.7829088"><ele>348.18</ele><time>2026-01-14T21:17:06.000Z</time></trkpt>
        <trkpt lat="29.0114254" lon="104.7829606"><ele>346.85</ele><time>2026-01-14T21:17:16.000Z</time></trkpt>
        <trkpt lat="29.0113581" lon="104.7830404"><ele>345.62</ele><time>2026-01-14T21:17:28.000Z</time></trkpt>
        <trkpt lat="29.0113089" lon="104.7831444"><ele>344.22</ele><time>2026-01-14T21:17:40.000Z</time></trkpt>
        <trkpt lat="29.0112789" lon="104.7832565"><ele>343.35</ele><time>2026-01-14T21:17:50.000Z</time></trkpt>
        <trkpt lat="29.0112563" lon="104.7833705"><ele>342.68</ele><time>2026-01-14T21:18:00.000Z</time></trkpt>
        <trkpt lat="29.0112268" lon="104.7834846"><ele>341.93</ele><time>2026-01-14T21:18:12.000Z</time></trkpt>
        <trkpt lat="29.0111782" lon="104.7834425"><ele>341.44</ele><time>2026-01-14T21:18:44.000Z</time></trkpt>
        <trkpt lat="29.0111016" lon="104.783385"><ele>340.41</ele><time>2026-01-14T21:18:58.000Z</time></trkpt>
        <trkpt lat="29.0110111" lon="104.7833452"><ele>338.3</ele><time>2026-01-14T21:19:08.000Z</time></trkpt>
        <trkpt lat="29.0109066" lon="104.7833324"><ele>336.75</ele><time>2026-01-14T21:19:20.000Z</time></trkpt>
        <trkpt lat="29.0108233" lon="104.783273"><ele>334.94</ele><time>2026-01-14T21:19:32.000Z</time></trkpt>
        <trkpt lat="29.0107988" lon="104.7831704"><ele>334.05</ele><time>2026-01-14T21:19:46.000Z</time></trkpt>
        <trkpt lat="29.0107615" lon="104.7830698"><ele>334.64</ele><time>2026-01-14T21:19:58.000Z</time></trkpt>
        <trkpt lat="29.0107265" lon="104.78296"><ele>334.16</ele><time>2026-01-14T21:20:08.000Z</time></trkpt>
        <trkpt lat="29.0106614" lon="104.7828758"><ele>333.47</ele><time>2026-01-14T21:20:18.000Z</time></trkpt>
        <trkpt lat="29.0105957" lon="104.7827804"><ele>334.96</ele><time>2026-01-14T21:20:30.000Z</time></trkpt>
        <trkpt lat="29.0105048" lon="104.7827118"><ele>337.23</ele><time>2026-01-14T21:20:42.000Z</time></trkpt>
        <trkpt lat="29.0104142" lon="104.7826645"><ele>338.01</ele><time>2026-01-14T21:20:54.000Z</time></trkpt>
        <trkpt lat="29.0103328" lon="104.7827001"><ele>339.88</ele><time>2026-01-14T21:21:08.000Z</time></trkpt>
        <trkpt lat="29.0102429" lon="104.7826738"><ele>342.55</ele><time>2026-01-14T21:21:24.000Z</time></trkpt>
        <trkpt lat="29.0101643" lon="104.7826033"><ele>343.33</ele><time>2026-01-14T21:21:36.000Z</time></trkpt>
        <trkpt lat="29.0100719" lon="104.7825555"><ele>344.42</ele><time>2026-01-14T21:21:46.000Z</time></trkpt>
        <trkpt lat="29.0099792" lon="104.7825406"><ele>344.8</ele><time>2026-01-14T21:21:58.000Z</time></trkpt>
        <trkpt lat="29.0098823" lon="104.7825637"><ele>344.88</ele><time>2026-01-14T21:22:10.000Z</time></trkpt>
        <trkpt lat="29.0097974" lon="104.7826122"><ele>345.62</ele><time>2026-01-14T21:22:20.000Z</time></trkpt>
        <trkpt lat="29.0097158" lon="104.782669"><ele>345.98</ele><time>2026-01-14T21:22:32.000Z</time></trkpt>
        <trkpt lat="29.0096239" lon="104.7827012"><ele>347.66</ele><time>2026-01-14T21:22:42.000Z</time></trkpt>
        <trkpt lat="29.0095207" lon="104.7827019"><ele>348.77</ele><time>2026-01-14T21:22:52.000Z</time></trkpt>
        <trkpt lat="29.0094258" lon="104.782674"><ele>349.02</ele><time>2026-01-14T21:23:02.000Z</time></trkpt>
        <trkpt lat="29.0093261" lon="104.7826062"><ele>349.6</ele><time>2026-01-14T21:23:10.000Z</time></trkpt>
        <trkpt lat="29.0092347" lon="104.7825388"><ele>350.71</ele><time>2026-01-14T21:23:24.000Z</time></trkpt>
        <trkpt lat="29.0091427" lon="104.7825175"><ele>351.71</ele><time>2026-01-14T21:23:34.000Z</time></trkpt>
        <trkpt lat="29.0090463" lon="104.7825127"><ele>352.78</ele><time>2026-01-14T21:23:44.000Z</time></trkpt>
        <trkpt lat="29.0089774" lon="104.782452"><ele>353.7</ele><time>2026-01-14T21:23:54.000Z</time></trkpt>
        <trkpt lat="29.0089549" lon="104.7825224"><ele>354.31</ele><time>2026-01-14T21:24:20.000Z</time></trkpt>
        <trkpt lat="29.0089701" lon="104.7826352"><ele>351.8</ele><time>2026-01-14T21:24:32.000Z</time></trkpt>
        <trkpt lat="29.0089519" lon="104.7827541"><ele>349.89</ele><time>2026-01-14T21:24:46.000Z</time></trkpt>
        <trkpt lat="29.00888" lon="104.7827683"><ele>349.22</ele><time>2026-01-14T21:24:58.000Z</time></trkpt>
        <trkpt lat="29.008809" lon="104.7826996"><ele>349.54</ele><time>2026-01-14T21:25:10.000Z</time></trkpt>
        <trkpt lat="29.0087435" lon="104.7825934"><ele>347.92</ele><time>2026-01-14T21:25:22.000Z</time></trkpt>
        <trkpt lat="29.0086683" lon="104.7825676"><ele>344.81</ele><time>2026-01-14T21:25:34.000Z</time></trkpt>
        <trkpt lat="29.0086683" lon="104.7825676"><ele>344.81</ele><time>2026-01-14T21:25:47.000Z</time></trkpt>
        <trkpt lat="29.0086127" lon="104.7826335"><ele>342.46</ele><time>2026-01-14T21:25:49.000Z</time></trkpt>
        <trkpt lat="29.0086127" lon="104.7826335"><ele>342.46</ele><time>2026-01-14T21:26:18.000Z</time></trkpt>
        <trkpt lat="29.0086355" lon="104.7827351"><ele>339.77</ele><time>2026-01-14T21:26:32.000Z</time></trkpt>
        <trkpt lat="29.0086344" lon="104.782852"><ele>337.14</ele><time>2026-01-14T21:26:42.000Z</time></trkpt>
        <trkpt lat="29.0086203" lon="104.7829672"><ele>335.82</ele><time>2026-01-14T21:26:54.000Z</time></trkpt>
        <trkpt lat="29.0086097" lon="104.7830878"><ele>335.4</ele><time>2026-01-14T21:27:06.000Z</time></trkpt>
        <trkpt lat="29.0086273" lon="104.7831975"><ele>335.49</ele><time>2026-01-14T21:27:20.000Z</time></trkpt>
        <trkpt lat="29.0086502" lon="104.7833132"><ele>336.48</ele><time>2026-01-14T21:27:34.000Z</time></trkpt>
        <trkpt lat="29.008693" lon="104.7834165"><ele>337.61</ele><time>2026-01-14T21:27:44.000Z</time></trkpt>
        <trkpt lat="29.0087699" lon="104.7834777"><ele>339.29</ele><time>2026-01-14T21:27:52.000Z</time></trkpt>
        <trkpt lat="29.0087519" lon="104.7835523"><ele>340.9</ele><time>2026-01-14T21:28:12.000Z</time></trkpt>
        <trkpt lat="29.0086963" lon="104.7836314"><ele>341.15</ele><time>2026-01-14T21:28:28.000Z</time></trkpt>
        <trkpt lat="29.0086374" lon="104.7837187"><ele>344.91</ele><time>2026-01-14T21:28:50.000Z</time></trkpt>
        <trkpt lat="29.0086374" lon="104.7837187"><ele>344.91</ele><time>2026-01-14T21:29:51.000Z</time></trkpt>
        <trkpt lat="29.0085575" lon="104.7837971"><ele>348.7</ele><time>2026-01-14T21:31:05.000Z</time></trkpt>
        <trkpt lat="29.0085575" lon="104.7837971"><ele>348.7</ele><time>2026-01-14T21:31:20.000Z</time></trkpt>
        <trkpt lat="29.008474" lon="104.7837294"><ele>351.31</ele><time>2026-01-14T21:31:48.000Z</time></trkpt>
        <trkpt lat="29.0084039" lon="104.783641"><ele>354.05</ele><time>2026-01-14T21:31:58.000Z</time></trkpt>
        <trkpt lat="29.0083467" lon="104.7835563"><ele>355.79</ele><time>2026-01-14T21:32:08.000Z</time></trkpt>
        <trkpt lat="29.008275" lon="104.7834835"><ele>356.58</ele><time>2026-01-14T21:32:22.000Z</time></trkpt>
        <trkpt lat="29.0081963" lon="104.7834238"><ele>357.77</ele><time>2026-01-14T21:32:30.000Z</time></trkpt>
        <trkpt lat="29.0081103" lon="104.7833742"><ele>358.49</ele><time>2026-01-14T21:32:40.000Z</time></trkpt>
        <trkpt lat="29.0080197" lon="104.7834213"><ele>360.17</ele><time>2026-01-14T21:32:52.000Z</time></trkpt>
        <trkpt lat="29.0079285" lon="104.7834629"><ele>361.45</ele><time>2026-01-14T21:33:02.000Z</time></trkpt>
        <trkpt lat="29.0078434" lon="104.7834376"><ele>362.32</ele><time>2026-01-14T21:33:10.000Z</time></trkpt>
        <trkpt lat="29.0077703" lon="104.783486"><ele>363.25</ele><time>2026-01-14T21:33:22.000Z</time></trkpt>
        <trkpt lat="29.0077146" lon="104.7835853"><ele>363.87</ele><time>2026-01-14T21:33:32.000Z</time></trkpt>
        <trkpt lat="29.0076857" lon="104.7837059"><ele>364.17</ele><time>2026-01-14T21:33:42.000Z</time></trkpt>
        <trkpt lat="29.0076974" lon="104.7838365"><ele>363.73</ele><time>2026-01-14T21:33:52.000Z</time></trkpt>
        <trkpt lat="29.0076837" lon="104.7839614"><ele>362.42</ele><time>2026-01-14T21:34:02.000Z</time></trkpt>
        <trkpt lat="29.0077201" lon="104.7840694"><ele>361.94</ele><time>2026-01-14T21:34:10.000Z</time></trkpt>
        <trkpt lat="29.0077495" lon="104.7841765"><ele>360.95</ele><time>2026-01-14T21:34:24.000Z</time></trkpt>
        <trkpt lat="29.007813" lon="104.7842658"><ele>360.21</ele><time>2026-01-14T21:34:36.000Z</time></trkpt>
        <trkpt lat="29.0078715" lon="104.7843521"><ele>359.77</ele><time>2026-01-14T21:34:58.000Z</time></trkpt>
        <trkpt lat="29.0078715" lon="104.7843521"><ele>359.77</ele><time>2026-01-14T21:35:47.000Z</time></trkpt>
        <trkpt lat="29.0078715" lon="104.7843521"><ele>359.77</ele><time>2026-01-14T21:35:51.000Z</time></trkpt>
        <trkpt lat="29.0078715" lon="104.7843521"><ele>359.77</ele><time>2026-01-14T21:36:07.000Z</time></trkpt>
        <trkpt lat="29.0078416" lon="104.7844421"><ele>359.21</ele><time>2026-01-14T21:37:27.000Z</time></trkpt>
        <trkpt lat="29.0078416" lon="104.7844421"><ele>359.21</ele><time>2026-01-14T21:39:44.000Z</time></trkpt>
        <trkpt lat="29.0077392" lon="104.7844545"><ele>359.93</ele><time>2026-01-14T21:40:06.000Z</time></trkpt>
        <trkpt lat="29.0076647" lon="104.7845255"><ele>360.84</ele><time>2026-01-14T21:40:34.000Z</time></trkpt>
        <trkpt lat="29.0075768" lon="104.784555"><ele>360.18</ele><time>2026-01-14T21:40:46.000Z</time></trkpt>
        <trkpt lat="29.0074847" lon="104.7846008"><ele>359.76</ele><time>2026-01-14T21:40:58.000Z</time></trkpt>
        <trkpt lat="29.0074097" lon="104.7846697"><ele>359.15</ele><time>2026-01-14T21:41:14.000Z</time></trkpt>
        <trkpt lat="29.0073434" lon="104.7847485"><ele>358.75</ele><time>2026-01-14T21:41:28.000Z</time></trkpt>
        <trkpt lat="29.0072964" lon="104.7848454"><ele>357.92</ele><time>2026-01-14T21:41:40.000Z</time></trkpt>
        <trkpt lat="29.0072518" lon="104.7849478"><ele>357.36</ele><time>2026-01-14T21:41:50.000Z</time></trkpt>
        <trkpt lat="29.0071907" lon="104.7850408"><ele>357.4</ele><time>2026-01-14T21:42:02.000Z</time></trkpt>
        <trkpt lat="29.0071136" lon="104.7850112"><ele>357.65</ele><time>2026-01-14T21:42:13.000Z</time></trkpt>
        <trkpt lat="29.0070514" lon="104.784917"><ele>356.77</ele><time>2026-01-14T21:42:23.000Z</time></trkpt>
        <trkpt lat="29.0070286" lon="104.7848001"><ele>356.64</ele><time>2026-01-14T21:42:34.000Z</time></trkpt>
        <trkpt lat="29.0069802" lon="104.7846818"><ele>356.98</ele><time>2026-01-14T21:42:45.000Z</time></trkpt>
        <trkpt lat="29.0069029" lon="104.7845955"><ele>357.35</ele><time>2026-01-14T21:42:55.000Z</time></trkpt>
        <trkpt lat="29.0068192" lon="104.7845145"><ele>357.99</ele><time>2026-01-14T21:43:05.000Z</time></trkpt>
        <trkpt lat="29.0067414" lon="104.7844439"><ele>358.36</ele><time>2026-01-14T21:43:13.000Z</time></trkpt>
        <trkpt lat="29.0066787" lon="104.784358"><ele>358.23</ele><time>2026-01-14T21:43:21.000Z</time></trkpt>
        <trkpt lat="29.0065809" lon="104.7842837"><ele>357.77</ele><time>2026-01-14T21:43:31.000Z</time></trkpt>
        <trkpt lat="29.0064806" lon="104.7842416"><ele>358.25</ele><time>2026-01-14T21:43:39.000Z</time></trkpt>
        <trkpt lat="29.0063831" lon="104.7842173"><ele>358.88</ele><time>2026-01-14T21:43:47.000Z</time></trkpt>
        <trkpt lat="29.0062894" lon="104.7842392"><ele>359.54</ele><time>2026-01-14T21:43:55.000Z</time></trkpt>
        <trkpt lat="29.0061998" lon="104.7842761"><ele>359.59</ele><time>2026-01-14T21:44:03.000Z</time></trkpt>
        <trkpt lat="29.0061007" lon="104.7842894"><ele>358.82</ele><time>2026-01-14T21:44:11.000Z</time></trkpt>
        <trkpt lat="29.0059956" lon="104.7842901"><ele>358.19</ele><time>2026-01-14T21:44:19.000Z</time></trkpt>
        <trkpt lat="29.0058924" lon="104.7843044"><ele>357.6</ele><time>2026-01-14T21:44:27.000Z</time></trkpt>
        <trkpt lat="29.0058348" lon="104.7843212"><ele>356.68</ele><time>2026-01-14T21:44:33.000Z</time></trkpt>
        <trkpt lat="29.0057509" lon="104.7843301"><ele>355.84</ele><time>2026-01-14T21:44:57.000Z</time></trkpt>
        <trkpt lat="29.0056459" lon="104.7843421"><ele>355.1</ele><time>2026-01-14T21:45:05.000Z</time></trkpt>
        <trkpt lat="29.0055387" lon="104.7843257"><ele>353.68</ele><time>2026-01-14T21:45:13.000Z</time></trkpt>
        <trkpt lat="29.005456" lon="104.7842624"><ele>352.46</ele><time>2026-01-14T21:45:21.000Z</time></trkpt>
        <trkpt lat="29.0054137" lon="104.7841647"><ele>351.27</ele><time>2026-01-14T21:45:29.000Z</time></trkpt>
        <trkpt lat="29.0053444" lon="104.7840999"><ele>350.58</ele><time>2026-01-14T21:45:36.000Z</time></trkpt>
        <trkpt lat="29.0052621" lon="104.7840412"><ele>350</ele><time>2026-01-14T21:45:45.000Z</time></trkpt>
        <trkpt lat="29.0051968" lon="104.7839586"><ele>349.3</ele><time>2026-01-14T21:45:53.000Z</time></trkpt>
        <trkpt lat="29.0051376" lon="104.7838988"><ele>348.91</ele><time>2026-01-14T21:46:03.000Z</time></trkpt>
        <trkpt lat="29.0051376" lon="104.7838988"><ele>348.91</ele><time>2026-01-14T21:46:41.000Z</time></trkpt>
        <trkpt lat="29.0050601" lon="104.783847"><ele>348.34</ele><time>2026-01-14T21:46:43.000Z</time></trkpt>
        <trkpt lat="29.0050601" lon="104.783847"><ele>348.34</ele><time>2026-01-14T21:46:47.000Z</time></trkpt>
        <trkpt lat="29.0049662" lon="104.7838365"><ele>345.7</ele><time>2026-01-14T21:48:03.000Z</time></trkpt>
        <trkpt lat="29.0048792" lon="104.7839007"><ele>345.73</ele><time>2026-01-14T21:48:13.000Z</time></trkpt>
        <trkpt lat="29.0048144" lon="104.7839876"><ele>346.54</ele><time>2026-01-14T21:48:23.000Z</time></trkpt>
        <trkpt lat="29.0047313" lon="104.7840589"><ele>346</ele><time>2026-01-14T21:48:33.000Z</time></trkpt>
        <trkpt lat="29.0046594" lon="104.7841466"><ele>345.29</ele><time>2026-01-14T21:48:43.000Z</time></trkpt>
        <trkpt lat="29.0045922" lon="104.784234"><ele>342.48</ele><time>2026-01-14T21:48:55.000Z</time></trkpt>
        <trkpt lat="29.0045278" lon="104.7843105"><ele>338.13</ele><time>2026-01-14T21:49:03.000Z</time></trkpt>
        <trkpt lat="29.0045306" lon="104.7843156"><ele>335.65</ele><time>2026-01-14T21:49:05.000Z</time></trkpt>
        <trkpt lat="29.0044864" lon="104.7843571"><ele>334.75</ele><time>2026-01-14T21:49:19.000Z</time></trkpt>
        <trkpt lat="29.0044156" lon="104.7842935"><ele>330.98</ele><time>2026-01-14T21:49:42.000Z</time></trkpt>
        <trkpt lat="29.0043905" lon="104.7842493"><ele>330.15</ele><time>2026-01-14T21:49:47.000Z</time></trkpt>
        <trkpt lat="29.0043707" lon="104.7841537"><ele>329.69</ele><time>2026-01-14T21:50:07.000Z</time></trkpt>
        <trkpt lat="29.0043525" lon="104.7840269"><ele>330.02</ele><time>2026-01-14T21:50:15.000Z</time></trkpt>
        <trkpt lat="29.0043537" lon="104.7838916"><ele>328.56</ele><time>2026-01-14T21:50:22.000Z</time></trkpt>
        <trkpt lat="29.0043731" lon="104.7837617"><ele>327.73</ele><time>2026-01-14T21:50:31.000Z</time></trkpt>
        <trkpt lat="29.0044009" lon="104.7836529"><ele>327.34</ele><time>2026-01-14T21:50:36.000Z</time></trkpt>
        <trkpt lat="29.0043897" lon="104.7835368"><ele>325.84</ele><time>2026-01-14T21:50:47.000Z</time></trkpt>
        <trkpt lat="29.0043942" lon="104.7834305"><ele>324</ele><time>2026-01-14T21:50:53.000Z</time></trkpt>
        <trkpt lat="29.0043829" lon="104.7833603"><ele>323.36</ele><time>2026-01-14T21:51:02.000Z</time></trkpt>
        <trkpt lat="29.0043829" lon="104.7833603"><ele>323.36</ele><time>2026-01-14T21:51:43.000Z</time></trkpt>
        <trkpt lat="29.0043829" lon="104.7833603"><ele>323.36</ele><time>2026-01-14T21:51:47.000Z</time></trkpt>
        <trkpt lat="29.0043829" lon="104.7833603"><ele>323.36</ele><time>2026-01-14T21:52:11.000Z</time></trkpt>
        <trkpt lat="29.0043829" lon="104.7833603"><ele>323.36</ele><time>2026-01-14T21:52:15.000Z</time></trkpt>
        <trkpt lat="29.0043829" lon="104.7833603"><ele>323.36</ele><time>2026-01-14T21:52:33.000Z</time></trkpt>
        <trkpt lat="29.0043227" lon="104.783287"><ele>323.49</ele><time>2026-01-14T21:52:59.000Z</time></trkpt>
        <trkpt lat="29.0043227" lon="104.783287"><ele>323.49</ele><time>2026-01-14T21:53:18.000Z</time></trkpt>
        <trkpt lat="29.0043227" lon="104.783287"><ele>323.49</ele><time>2026-01-14T21:53:37.000Z</time></trkpt>
        <trkpt lat="29.0043542" lon="104.7831787"><ele>320.74</ele><time>2026-01-14T21:53:39.000Z</time></trkpt>
        <trkpt lat="29.0043542" lon="104.7831787"><ele>320.74</ele><time>2026-01-14T21:53:53.000Z</time></trkpt>
        <trkpt lat="29.0043163" lon="104.7830577"><ele>319.33</ele><time>2026-01-14T21:54:03.000Z</time></trkpt>
        <trkpt lat="29.0043169" lon="104.7829133"><ele>316.97</ele><time>2026-01-14T21:54:11.000Z</time></trkpt>
        <trkpt lat="29.0042777" lon="104.7828"><ele>314.46</ele><time>2026-01-14T21:54:17.000Z</time></trkpt>
        <trkpt lat="29.0042315" lon="104.782754"><ele>311.42</ele><time>2026-01-14T21:54:24.000Z</time></trkpt>
        <trkpt lat="29.0042456" lon="104.7826794"><ele>309.25</ele><time>2026-01-14T21:54:46.000Z</time></trkpt>
        <trkpt lat="29.0042771" lon="104.782589"><ele>309.67</ele><time>2026-01-14T21:54:55.000Z</time></trkpt>
        <trkpt lat="29.0043921" lon="104.7825168"><ele>310.34</ele><time>2026-01-14T21:55:01.000Z</time></trkpt>
        <trkpt lat="29.0044068" lon="104.782426"><ele>308.9</ele><time>2026-01-14T21:55:13.000Z</time></trkpt>
        <trkpt lat="29.0044776" lon="104.7823589"><ele>307.79</ele><time>2026-01-14T21:56:09.000Z</time></trkpt>
        <trkpt lat="29.0045746" lon="104.7823258"><ele>311.01</ele><time>2026-01-14T21:56:23.000Z</time></trkpt>
        <trkpt lat="29.0046678" lon="104.7823594"><ele>309.63</ele><time>2026-01-14T21:56:30.000Z</time></trkpt>
        <trkpt lat="29.0047625" lon="104.7823891"><ele>308.28</ele><time>2026-01-14T21:56:38.000Z</time></trkpt>
        <trkpt lat="29.004855" lon="104.7823725"><ele>307.69</ele><time>2026-01-14T21:56:47.000Z</time></trkpt>
        <trkpt lat="29.0049464" lon="104.782329"><ele>308.49</ele><time>2026-01-14T21:56:54.000Z</time></trkpt>
        <trkpt lat="29.0050245" lon="104.7822486"><ele>309.84</ele><time>2026-01-14T21:57:04.000Z</time></trkpt>
        <trkpt lat="29.0050807" lon="104.7821516"><ele>311.48</ele><time>2026-01-14T21:57:15.000Z</time></trkpt>
        <trkpt lat="29.0051321" lon="104.7820463"><ele>312.15</ele><time>2026-01-14T21:57:25.000Z</time></trkpt>
        <trkpt lat="29.005159" lon="104.7819367"><ele>313.37</ele><time>2026-01-14T21:57:34.000Z</time></trkpt>
        <trkpt lat="29.005177" lon="104.7818298"><ele>313.31</ele><time>2026-01-14T21:57:43.000Z</time></trkpt>
        <trkpt lat="29.0052501" lon="104.7817952"><ele>314.25</ele><time>2026-01-14T21:57:50.000Z</time></trkpt>
        <trkpt lat="29.0053488" lon="104.7817819"><ele>314.46</ele><time>2026-01-14T21:57:58.000Z</time></trkpt>
        <trkpt lat="29.0054324" lon="104.7817269"><ele>314.34</ele><time>2026-01-14T21:58:06.000Z</time></trkpt>
        <trkpt lat="29.0054661" lon="104.7816332"><ele>314.52</ele><time>2026-01-14T21:58:15.000Z</time></trkpt>
        <trkpt lat="29.0054291" lon="104.7815375"><ele>314.69</ele><time>2026-01-14T21:58:24.000Z</time></trkpt>
        <trkpt lat="29.0054281" lon="104.7814307"><ele>314.94</ele><time>2026-01-14T21:59:11.000Z</time></trkpt>
        <trkpt lat="29.0054164" lon="104.7813151"><ele>315.28</ele><time>2026-01-14T21:59:21.000Z</time></trkpt>
        <trkpt lat="29.005438" lon="104.7812049"><ele>315.32</ele><time>2026-01-14T21:59:30.000Z</time></trkpt>
        <trkpt lat="29.0054078" lon="104.7811059"><ele>315.18</ele><time>2026-01-14T21:59:41.000Z</time></trkpt>
        <trkpt lat="29.0053318" lon="104.7810397"><ele>315.44</ele><time>2026-01-14T21:59:50.000Z</time></trkpt>
        <trkpt lat="29.0053015" lon="104.7809355"><ele>316.06</ele><time>2026-01-14T22:00:02.000Z</time></trkpt>
        <trkpt lat="29.0053327" lon="104.7808411"><ele>315.72</ele><time>2026-01-14T22:00:11.000Z</time></trkpt>
        <trkpt lat="29.0053964" lon="104.7807524"><ele>315.42</ele><time>2026-01-14T22:00:20.000Z</time></trkpt>
        <trkpt lat="29.00546" lon="104.7806622"><ele>316.06</ele><time>2026-01-14T22:00:31.000Z</time></trkpt>
        <trkpt lat="29.0055039" lon="104.7805586"><ele>315.66</ele><time>2026-01-14T22:00:41.000Z</time></trkpt>
        <trkpt lat="29.0054633" lon="104.7804873"><ele>315.33</ele><time>2026-01-14T22:00:55.000Z</time></trkpt>
        <trkpt lat="29.0054149" lon="104.780397"><ele>314.69</ele><time>2026-01-14T22:01:18.000Z</time></trkpt>
        <trkpt lat="29.0053309" lon="104.7803518"><ele>314.1</ele><time>2026-01-14T22:01:27.000Z</time></trkpt>
        <trkpt lat="29.0052296" lon="104.7803824"><ele>314.1</ele><time>2026-01-14T22:01:36.000Z</time></trkpt>
        <trkpt lat="29.0051603" lon="104.7803938"><ele>314.78</ele><time>2026-01-14T22:01:45.000Z</time></trkpt>
        <trkpt lat="29.0050699" lon="104.7803614"><ele>316.03</ele><time>2026-01-14T22:01:57.000Z</time></trkpt>
        <trkpt lat="29.0049734" lon="104.78033"><ele>316.66</ele><time>2026-01-14T22:02:05.000Z</time></trkpt>
        <trkpt lat="29.0048945" lon="104.7803758"><ele>317.59</ele><time>2026-01-14T22:02:13.000Z</time></trkpt>
        <trkpt lat="29.0048458" lon="104.7804779"><ele>318.66</ele><time>2026-01-14T22:02:21.000Z</time></trkpt>
        <trkpt lat="29.0047905" lon="104.780577"><ele>320.17</ele><time>2026-01-14T22:02:31.000Z</time></trkpt>
        <trkpt lat="29.0047051" lon="104.7806369"><ele>321.24</ele><time>2026-01-14T22:02:39.000Z</time></trkpt>
        <trkpt lat="29.0046172" lon="104.7806795"><ele>322.66</ele><time>2026-01-14T22:02:47.000Z</time></trkpt>
        <trkpt lat="29.0045342" lon="104.780728"><ele>324.54</ele><time>2026-01-14T22:02:55.000Z</time></trkpt>
        <trkpt lat="29.0044418" lon="104.7807579"><ele>325.72</ele><time>2026-01-14T22:03:03.000Z</time></trkpt>
        <trkpt lat="29.0043389" lon="104.7807498"><ele>325.57</ele><time>2026-01-14T22:03:13.000Z</time></trkpt>
        <trkpt lat="29.0042297" lon="104.7807323"><ele>325.56</ele><time>2026-01-14T22:03:23.000Z</time></trkpt>
        <trkpt lat="29.0041336" lon="104.7806954"><ele>324.66</ele><time>2026-01-14T22:03:31.000Z</time></trkpt>
        <trkpt lat="29.004035" lon="104.7806666"><ele>323.12</ele><time>2026-01-14T22:03:43.000Z</time></trkpt>
        <trkpt lat="29.0039398" lon="104.7806577"><ele>320.68</ele><time>2026-01-14T22:03:50.000Z</time></trkpt>
        <trkpt lat="29.003842" lon="104.7806368"><ele>319.01</ele><time>2026-01-14T22:03:59.000Z</time></trkpt>
        <trkpt lat="29.0037442" lon="104.7806016"><ele>317.14</ele><time>2026-01-14T22:04:11.000Z</time></trkpt>
        <trkpt lat="29.0036565" lon="104.7805579"><ele>315.95</ele><time>2026-01-14T22:04:23.000Z</time></trkpt>
        <trkpt lat="29.0035735" lon="104.7805795"><ele>314.21</ele><time>2026-01-14T22:04:37.000Z</time></trkpt>
        <trkpt lat="29.0035022" lon="104.7805171"><ele>311.37</ele><time>2026-01-14T22:04:49.000Z</time></trkpt>
        <trkpt lat="29.0034919" lon="104.7803997"><ele>307.42</ele><time>2026-01-14T22:04:53.000Z</time></trkpt>
        <trkpt lat="29.0034762" lon="104.7802873"><ele>304.4</ele><time>2026-01-14T22:05:00.000Z</time></trkpt>
        <trkpt lat="29.0034268" lon="104.7801838"><ele>303.08</ele><time>2026-01-14T22:05:11.000Z</time></trkpt>
        <trkpt lat="29.0034076" lon="104.7800792"><ele>302.49</ele><time>2026-01-14T22:05:20.000Z</time></trkpt>
        <trkpt lat="29.0034021" lon="104.7799739"><ele>301.78</ele><time>2026-01-14T22:05:32.000Z</time></trkpt>
        <trkpt lat="29.0033973" lon="104.779858"><ele>301.29</ele><time>2026-01-14T22:05:43.000Z</time></trkpt>
        <trkpt lat="29.0033467" lon="104.7797671"><ele>300.06</ele><time>2026-01-14T22:05:51.000Z</time></trkpt>
        <trkpt lat="29.0032832" lon="104.7796791"><ele>299</ele><time>2026-01-14T22:06:00.000Z</time></trkpt>
        <trkpt lat="29.0032031" lon="104.7795975"><ele>297.9</ele><time>2026-01-14T22:06:13.000Z</time></trkpt>
        <trkpt lat="29.0031072" lon="104.7795435"><ele>297.46</ele><time>2026-01-14T22:06:23.000Z</time></trkpt>
        <trkpt lat="29.0030016" lon="104.7795224"><ele>296.71</ele><time>2026-01-14T22:06:33.000Z</time></trkpt>
        <trkpt lat="29.002909" lon="104.7794841"><ele>294.46</ele><time>2026-01-14T22:06:41.000Z</time></trkpt>
        <trkpt lat="29.0028478" lon="104.7794058"><ele>292.88</ele><time>2026-01-14T22:06:48.000Z</time></trkpt>
        <trkpt lat="29.0027871" lon="104.7793225"><ele>291.92</ele><time>2026-01-14T22:06:59.000Z</time></trkpt>
        <trkpt lat="29.0026932" lon="104.7792688"><ele>291.43</ele><time>2026-01-14T22:07:08.000Z</time></trkpt>
        <trkpt lat="29.0025932" lon="104.7792358"><ele>289.89</ele><time>2026-01-14T22:07:17.000Z</time></trkpt>
        <trkpt lat="29.0024928" lon="104.7792058"><ele>289.97</ele><time>2026-01-14T22:07:25.000Z</time></trkpt>
        <trkpt lat="29.0024106" lon="104.7791529"><ele>290.34</ele><time>2026-01-14T22:07:33.000Z</time></trkpt>
        <trkpt lat="29.0023216" lon="104.779109"><ele>290.89</ele><time>2026-01-14T22:07:41.000Z</time></trkpt>
        <trkpt lat="29.0022271" lon="104.7790953"><ele>289.47</ele><time>2026-01-14T22:07:49.000Z</time></trkpt>
        <trkpt lat="29.0021363" lon="104.77908"><ele>287.39</ele><time>2026-01-14T22:07:57.000Z</time></trkpt>
        <trkpt lat="29.0020501" lon="104.7790443"><ele>286.17</ele><time>2026-01-14T22:08:05.000Z</time></trkpt>
        <trkpt lat="29.0019597" lon="104.7789961"><ele>284.46</ele><time>2026-01-14T22:08:14.000Z</time></trkpt>
        <trkpt lat="29.0018717" lon="104.7789362"><ele>283.26</ele><time>2026-01-14T22:08:26.000Z</time></trkpt>
        <trkpt lat="29.0018189" lon="104.7788366"><ele>283.09</ele><time>2026-01-14T22:08:37.000Z</time></trkpt>
        <trkpt lat="29.0017517" lon="104.7787621"><ele>284.2</ele><time>2026-01-14T22:08:49.000Z</time></trkpt>
        <trkpt lat="29.0017523" lon="104.7786672"><ele>285.82</ele><time>2026-01-14T22:09:07.000Z</time></trkpt>
        <trkpt lat="29.0017523" lon="104.7786672"><ele>285.82</ele><time>2026-01-14T22:09:25.000Z</time></trkpt>
        <trkpt lat="29.0017523" lon="104.7786672"><ele>285.82</ele><time>2026-01-14T22:09:27.000Z</time></trkpt>
        <trkpt lat="29.0017523" lon="104.7786672"><ele>285.82</ele><time>2026-01-14T22:09:43.000Z</time></trkpt>
        <trkpt lat="29.0017523" lon="104.7786672"><ele>285.82</ele><time>2026-01-14T22:09:55.000Z</time></trkpt>
        <trkpt lat="29.0017523" lon="104.7786672"><ele>285.82</ele><time>2026-01-14T22:10:57.000Z</time></trkpt>
        <trkpt lat="29.0018095" lon="104.7785636"><ele>284.06</ele><time>2026-01-14T22:11:01.000Z</time></trkpt>
        <trkpt lat="29.0018095" lon="104.7785636"><ele>284.06</ele><time>2026-01-14T22:11:05.000Z</time></trkpt>
        <trkpt lat="29.0017538" lon="104.7784786"><ele>281.08</ele><time>2026-01-14T22:11:19.000Z</time></trkpt>
        <trkpt lat="29.0017538" lon="104.7784786"><ele>281.08</ele><time>2026-01-14T22:11:31.000Z</time></trkpt>
        <trkpt lat="29.0016697" lon="104.7784343"><ele>281.36</ele><time>2026-01-14T22:11:35.000Z</time></trkpt>
        <trkpt lat="29.0016697" lon="104.7784343"><ele>281.36</ele><time>2026-01-14T22:11:56.000Z</time></trkpt>
        <trkpt lat="29.0015987" lon="104.7783628"><ele>282.39</ele><time>2026-01-14T22:12:20.000Z</time></trkpt>
        <trkpt lat="29.001516" lon="104.778323"><ele>283.63</ele><time>2026-01-14T22:12:39.000Z</time></trkpt>
        <trkpt lat="29.0014157" lon="104.7783012"><ele>282.09</ele><time>2026-01-14T22:13:01.000Z</time></trkpt>
        <trkpt lat="29.0013185" lon="104.7783237"><ele>282.4</ele><time>2026-01-14T22:13:16.000Z</time></trkpt>
        <trkpt lat="29.0012217" lon="104.7783468"><ele>282.83</ele><time>2026-01-14T22:13:35.000Z</time></trkpt>
        <trkpt lat="29.0011483" lon="104.7784116"><ele>282.62</ele><time>2026-01-14T22:14:07.000Z</time></trkpt>
        <trkpt lat="29.0010788" lon="104.7783847"><ele>281.65</ele><time>2026-01-14T22:14:19.000Z</time></trkpt>
        <trkpt lat="29.0010788" lon="104.7783847"><ele>281.65</ele><time>2026-01-14T22:14:39.000Z</time></trkpt>
        <trkpt lat="29.0010085" lon="104.7783159"><ele>280.94</ele><time>2026-01-14T22:14:51.000Z</time></trkpt>
        <trkpt lat="29.0010085" lon="104.7783159"><ele>280.94</ele><time>2026-01-14T22:15:07.000Z</time></trkpt>
        <trkpt lat="29.0010085" lon="104.7783159"><ele>280.94</ele><time>2026-01-14T22:15:39.000Z</time></trkpt>
        <trkpt lat="29.0010085" lon="104.7782084"><ele>279.77</ele><time>2026-01-14T22:15:55.000Z</time></trkpt>
        <trkpt lat="29.0010085" lon="104.7782084"><ele>279.77</ele><time>2026-01-14T22:16:07.000Z</time></trkpt>
        <trkpt lat="29.0010085" lon="104.7782084"><ele>279.77</ele><time>2026-01-14T22:16:23.000Z</time></trkpt>
        <trkpt lat="29.0009401" lon="104.7781575"><ele>280.14</ele><time>2026-01-14T22:16:25.000Z</time></trkpt>
        <trkpt lat="29.0009401" lon="104.7781575"><ele>280.14</ele><time>2026-01-14T22:16:31.000Z</time></trkpt>
        <trkpt lat="29.0008505" lon="104.7781472"><ele>281.39</ele><time>2026-01-14T22:16:43.000Z</time></trkpt>
        <trkpt lat="29.0008275" lon="104.7780641"><ele>280.99</ele><time>2026-01-14T22:16:50.000Z</time></trkpt>
        <trkpt lat="29.0007807" lon="104.7779659"><ele>278.84</ele><time>2026-01-14T22:16:59.000Z</time></trkpt>
        <trkpt lat="29.0007167" lon="104.7778692"><ele>275.88</ele><time>2026-01-14T22:17:11.000Z</time></trkpt>
        <trkpt lat="29.00063" lon="104.7778394"><ele>273.05</ele><time>2026-01-14T22:17:19.000Z</time></trkpt>
        <trkpt lat="29.0005335" lon="104.7778"><ele>270.01</ele><time>2026-01-14T22:17:29.000Z</time></trkpt>
        <trkpt lat="29.0004439" lon="104.7777613"><ele>271.32</ele><time>2026-01-14T22:17:39.000Z</time></trkpt>
        <trkpt lat="29.000351" lon="104.7777138"><ele>275.81</ele><time>2026-01-14T22:17:53.000Z</time></trkpt>
        <trkpt lat="29.0002553" lon="104.7777149"><ele>277.52</ele><time>2026-01-14T22:18:01.000Z</time></trkpt>
        <trkpt lat="29.0001694" lon="104.7777638"><ele>277.41</ele><time>2026-01-14T22:18:06.000Z</time></trkpt>
        <trkpt lat="29.0000876" lon="104.777823"><ele>279.33</ele><time>2026-01-14T22:18:15.000Z</time></trkpt>
        <trkpt lat="29.0000169" lon="104.7779125"><ele>281.48</ele><time>2026-01-14T22:18:25.000Z</time></trkpt>
        <trkpt lat="28.9999275" lon="104.7779701"><ele>284.67</ele><time>2026-01-14T22:18:37.000Z</time></trkpt>
        <trkpt lat="28.9998326" lon="104.778002"><ele>287.74</ele><time>2026-01-14T22:18:48.000Z</time></trkpt>
        <trkpt lat="28.9997748" lon="104.7779357"><ele>288.8</ele><time>2026-01-14T22:19:03.000Z</time></trkpt>
        <trkpt lat="28.9997003" lon="104.7778707"><ele>288.01</ele><time>2026-01-14T22:19:16.000Z</time></trkpt>
        <trkpt lat="28.9996181" lon="104.777894"><ele>286.4</ele><time>2026-01-14T22:19:26.000Z</time></trkpt>
        <trkpt lat="28.9995238" lon="104.7779136"><ele>286.43</ele><time>2026-01-14T22:19:35.000Z</time></trkpt>
        <trkpt lat="28.9994258" lon="104.7779413"><ele>287.1</ele><time>2026-01-14T22:19:47.000Z</time></trkpt>
        <trkpt lat="28.9993961" lon="104.7779434"><ele>287</ele><time>2026-01-14T22:19:48.000Z</time></trkpt>
        <trkpt lat="28.9993547" lon="104.77788"><ele>286.87</ele><time>2026-01-14T22:20:07.000Z</time></trkpt>
        <trkpt lat="28.9992872" lon="104.7779107"><ele>283.15</ele><time>2026-01-14T22:20:37.000Z</time></trkpt>
        <trkpt lat="28.9992872" lon="104.7779107"><ele>283.15</ele><time>2026-01-14T22:21:23.000Z</time></trkpt>
        <trkpt lat="28.9992346" lon="104.7780233"><ele>282.54</ele><time>2026-01-14T22:21:33.000Z</time></trkpt>
        <trkpt lat="28.9992346" lon="104.7780233"><ele>282.54</ele><time>2026-01-14T22:21:49.000Z</time></trkpt>
        <trkpt lat="28.9992346" lon="104.7780233"><ele>282.54</ele><time>2026-01-14T22:22:07.000Z</time></trkpt>
        <trkpt lat="28.9992346" lon="104.7780233"><ele>282.54</ele><time>2026-01-14T22:23:03.000Z</time></trkpt>
        <trkpt lat="28.9992346" lon="104.7780233"><ele>282.54</ele><time>2026-01-14T22:23:29.000Z</time></trkpt>
        <trkpt lat="28.9993208" lon="104.7779844"><ele>281.06</ele><time>2026-01-14T22:23:55.000Z</time></trkpt>
        <trkpt lat="28.9993208" lon="104.7779844"><ele>281.06</ele><time>2026-01-14T22:24:16.000Z</time></trkpt>
        <trkpt lat="28.9993059" lon="104.7778722"><ele>280.25</ele><time>2026-01-14T22:24:37.000Z</time></trkpt>
        <trkpt lat="28.9993598" lon="104.7779189"><ele>279.65</ele><time>2026-01-14T22:25:13.000Z</time></trkpt>
        <trkpt lat="28.9994268" lon="104.7779903"><ele>281.93</ele><time>2026-01-14T22:25:50.000Z</time></trkpt>
        <trkpt lat="28.9995119" lon="104.7779897"><ele>284.3</ele><time>2026-01-14T22:25:58.000Z</time></trkpt>
        <trkpt lat="28.9996008" lon="104.778022"><ele>284.81</ele><time>2026-01-14T22:26:07.000Z</time></trkpt>
        <trkpt lat="28.9996941" lon="104.778007"><ele>285.52</ele><time>2026-01-14T22:26:17.000Z</time></trkpt>
        <trkpt lat="28.999779" lon="104.778045"><ele>284.65</ele><time>2026-01-14T22:26:31.000Z</time></trkpt>
        <trkpt lat="28.9998679" lon="104.7780673"><ele>282.12</ele><time>2026-01-14T22:26:43.000Z</time></trkpt>
        <trkpt lat="28.9999588" lon="104.7780431"><ele>281.37</ele><time>2026-01-14T22:26:55.000Z</time></trkpt>
        <trkpt lat="29.000055" lon="104.7779945"><ele>279.72</ele><time>2026-01-14T22:27:05.000Z</time></trkpt>
        <trkpt lat="29.0001398" lon="104.7779154"><ele>280.31</ele><time>2026-01-14T22:27:14.000Z</time></trkpt>
        <trkpt lat="29.0002199" lon="104.7778493"><ele>280.58</ele><time>2026-01-14T22:27:27.000Z</time></trkpt>
        <trkpt lat="29.0003103" lon="104.7778256"><ele>281.55</ele><time>2026-01-14T22:27:40.000Z</time></trkpt>
        <trkpt lat="29.0003959" lon="104.7778601"><ele>281.02</ele><time>2026-01-14T22:27:50.000Z</time></trkpt>
        <trkpt lat="29.0004842" lon="104.7779157"><ele>280.9</ele><time>2026-01-14T22:28:01.000Z</time></trkpt>
        <trkpt lat="29.0005705" lon="104.7779642"><ele>281.03</ele><time>2026-01-14T22:28:10.000Z</time></trkpt>
        <trkpt lat="29.0006641" lon="104.778029"><ele>280.93</ele><time>2026-01-14T22:28:23.000Z</time></trkpt>
        <trkpt lat="29.0007346" lon="104.7781175"><ele>277.93</ele><time>2026-01-14T22:28:32.000Z</time></trkpt>
        <trkpt lat="29.0008127" lon="104.7781937"><ele>278.36</ele><time>2026-01-14T22:28:53.000Z</time></trkpt>
        <trkpt lat="29.0008965" lon="104.7782384"><ele>275.82</ele><time>2026-01-14T22:29:27.000Z</time></trkpt>
        <trkpt lat="29.0008965" lon="104.7782384"><ele>275.82</ele><time>2026-01-14T22:29:47.000Z</time></trkpt>
        <trkpt lat="29.0008965" lon="104.7782384"><ele>275.82</ele><time>2026-01-14T22:29:49.000Z</time></trkpt>
        <trkpt lat="29.0008965" lon="104.7782384"><ele>275.82</ele><time>2026-01-14T22:30:09.000Z</time></trkpt>
        <trkpt lat="29.0009947" lon="104.7782483"><ele>276.2</ele><time>2026-01-14T22:30:11.000Z</time></trkpt>
        <trkpt lat="29.0009947" lon="104.7782483"><ele>276.2</ele><time>2026-01-14T22:30:14.000Z</time></trkpt>
        <trkpt lat="29.0009947" lon="104.7782483"><ele>276.2</ele><time>2026-01-14T22:30:31.000Z</time></trkpt>
        <trkpt lat="29.0010269" lon="104.7783271"><ele>277.76</ele><time>2026-01-14T22:30:41.000Z</time></trkpt>
        <trkpt lat="29.0010269" lon="104.7783271"><ele>277.76</ele><time>2026-01-14T22:30:57.000Z</time></trkpt>
        <trkpt lat="29.0010883" lon="104.7783947"><ele>278.95</ele><time>2026-01-14T22:31:13.000Z</time></trkpt>
        <trkpt lat="29.0011799" lon="104.778427"><ele>276.25</ele><time>2026-01-14T22:31:27.000Z</time></trkpt>
        <trkpt lat="29.00127" lon="104.7783814"><ele>274.55</ele><time>2026-01-14T22:31:39.000Z</time></trkpt>
        <trkpt lat="29.0013685" lon="104.7783428"><ele>274.52</ele><time>2026-01-14T22:31:55.000Z</time></trkpt>
        <trkpt lat="29.0014496" lon="104.7783325"><ele>273.75</ele><time>2026-01-14T22:32:06.000Z</time></trkpt>
        <trkpt lat="29.0014496" lon="104.7783325"><ele>273.75</ele><time>2026-01-14T22:32:19.000Z</time></trkpt>
        <trkpt lat="29.0015264" lon="104.7783821"><ele>272.31</ele><time>2026-01-14T22:32:23.000Z</time></trkpt>
        <trkpt lat="29.0015264" lon="104.7783821"><ele>272.31</ele><time>2026-01-14T22:32:24.000Z</time></trkpt>
        <trkpt lat="29.001609" lon="104.7784341"><ele>272.99</ele><time>2026-01-14T22:32:31.000Z</time></trkpt>
        <trkpt lat="29.0016806" lon="104.7784886"><ele>274.9</ele><time>2026-01-14T22:32:42.000Z</time></trkpt>
        <trkpt lat="29.0016806" lon="104.7784886"><ele>274.9</ele><time>2026-01-14T22:32:55.000Z</time></trkpt>
        <trkpt lat="29.0017285" lon="104.7785866"><ele>279.2</ele><time>2026-01-14T22:33:01.000Z</time></trkpt>
        <trkpt lat="29.0017285" lon="104.7785866"><ele>279.2</ele><time>2026-01-14T22:33:17.000Z</time></trkpt>
        <trkpt lat="29.0017938" lon="104.778675"><ele>279.78</ele><time>2026-01-14T22:33:26.000Z</time></trkpt>
        <trkpt lat="29.001812" lon="104.7786961"><ele>279.6</ele><time>2026-01-14T22:33:32.000Z</time></trkpt>
        <trkpt lat="29.0017494" lon="104.7787452"><ele>276.47</ele><time>2026-01-14T22:34:01.000Z</time></trkpt>
        <trkpt lat="29.0017563" lon="104.7788425"><ele>273.68</ele><time>2026-01-14T22:34:15.000Z</time></trkpt>
        <trkpt lat="29.0018236" lon="104.7789226"><ele>273.11</ele><time>2026-01-14T22:34:27.000Z</time></trkpt>
        <trkpt lat="29.0018933" lon="104.7788684"><ele>273.73</ele><time>2026-01-14T22:34:37.000Z</time></trkpt>
        <trkpt lat="29.0019761" lon="104.7787815"><ele>273.35</ele><time>2026-01-14T22:34:48.000Z</time></trkpt>
        <trkpt lat="29.0020743" lon="104.7787691"><ele>273.34</ele><time>2026-01-14T22:35:00.000Z</time></trkpt>
        <trkpt lat="29.0021669" lon="104.7787991"><ele>274.18</ele><time>2026-01-14T22:35:15.000Z</time></trkpt>
        <trkpt lat="29.0022626" lon="104.7787846"><ele>275.16</ele><time>2026-01-14T22:35:28.000Z</time></trkpt>
        <trkpt lat="29.0023558" lon="104.7787661"><ele>278.25</ele><time>2026-01-14T22:35:37.000Z</time></trkpt>
        <trkpt lat="29.0024519" lon="104.7787313"><ele>280.42</ele><time>2026-01-14T22:35:56.000Z</time></trkpt>
        <trkpt lat="29.0025514" lon="104.7787114"><ele>283.42</ele><time>2026-01-14T22:36:09.000Z</time></trkpt>
        <trkpt lat="29.0026479" lon="104.7786849"><ele>284.74</ele><time>2026-01-14T22:36:19.000Z</time></trkpt>
        <trkpt lat="29.0027487" lon="104.7786457"><ele>284.68</ele><time>2026-01-14T22:36:29.000Z</time></trkpt>
        <trkpt lat="29.0028536" lon="104.77862"><ele>284</ele><time>2026-01-14T22:36:39.000Z</time></trkpt>
        <trkpt lat="29.0029424" lon="104.7786641"><ele>284.9</ele><time>2026-01-14T22:36:51.000Z</time></trkpt>
        <trkpt lat="29.0030156" lon="104.7787385"><ele>286.97</ele><time>2026-01-14T22:37:07.000Z</time></trkpt>
        <trkpt lat="29.003099" lon="104.7788085"><ele>289.4</ele><time>2026-01-14T22:37:24.000Z</time></trkpt>
        <trkpt lat="29.0031872" lon="104.7788538"><ele>290.29</ele><time>2026-01-14T22:37:37.000Z</time></trkpt>
        <trkpt lat="29.0032855" lon="104.778898"><ele>290.51</ele><time>2026-01-14T22:37:49.000Z</time></trkpt>
        <trkpt lat="29.0033758" lon="104.7789487"><ele>290.11</ele><time>2026-01-14T22:37:58.000Z</time></trkpt>
        <trkpt lat="29.0034726" lon="104.7789884"><ele>290.8</ele><time>2026-01-14T22:38:13.000Z</time></trkpt>
        <trkpt lat="29.0035689" lon="104.778973"><ele>292.06</ele><time>2026-01-14T22:38:24.000Z</time></trkpt>
        <trkpt lat="29.0036462" lon="104.7788938"><ele>292.55</ele><time>2026-01-14T22:38:35.000Z</time></trkpt>
        <trkpt lat="29.0037205" lon="104.7788098"><ele>292.87</ele><time>2026-01-14T22:38:43.000Z</time></trkpt>
        <trkpt lat="29.0037827" lon="104.7787047"><ele>293.95</ele><time>2026-01-14T22:38:53.000Z</time></trkpt>
        <trkpt lat="29.0038339" lon="104.7785981"><ele>295.07</ele><time>2026-01-14T22:39:05.000Z</time></trkpt>
        <trkpt lat="29.0038302" lon="104.7785432"><ele>295.48</ele><time>2026-01-14T22:39:10.000Z</time></trkpt>
        <trkpt lat="29.0038395" lon="104.7784583"><ele>296.42</ele><time>2026-01-14T22:39:27.000Z</time></trkpt>
        <trkpt lat="29.0038893" lon="104.7783777"><ele>297.01</ele><time>2026-01-14T22:39:38.000Z</time></trkpt>
        <trkpt lat="29.0039695" lon="104.7783227"><ele>297.1</ele><time>2026-01-14T22:39:50.000Z</time></trkpt>
        <trkpt lat="29.0040669" lon="104.7783018"><ele>297.29</ele><time>2026-01-14T22:40:04.000Z</time></trkpt>
        <trkpt lat="29.0040669" lon="104.7783018"><ele>297.29</ele><time>2026-01-14T22:40:31.000Z</time></trkpt>
        <trkpt lat="29.0041641" lon="104.778284"><ele>297.82</ele><time>2026-01-14T22:40:33.000Z</time></trkpt>
        <trkpt lat="29.0041641" lon="104.778284"><ele>297.82</ele><time>2026-01-14T22:40:34.000Z</time></trkpt>
        <trkpt lat="29.0042594" lon="104.7783035"><ele>300.27</ele><time>2026-01-14T22:40:56.000Z</time></trkpt>
        <trkpt lat="29.0043506" lon="104.7783478"><ele>302.11</ele><time>2026-01-14T22:41:23.000Z</time></trkpt>
        <trkpt lat="29.0044475" lon="104.7783946"><ele>301.09</ele><time>2026-01-14T22:41:36.000Z</time></trkpt>
        <trkpt lat="29.0045457" lon="104.7784226"><ele>299.25</ele><time>2026-01-14T22:41:45.000Z</time></trkpt>
        <trkpt lat="29.0046443" lon="104.7784148"><ele>299.02</ele><time>2026-01-14T22:41:55.000Z</time></trkpt>
        <trkpt lat="29.0047433" lon="104.7784383"><ele>298.06</ele><time>2026-01-14T22:42:05.000Z</time></trkpt>
        <trkpt lat="29.0048466" lon="104.7784406"><ele>297.77</ele><time>2026-01-14T22:42:13.000Z</time></trkpt>
        <trkpt lat="29.0049451" lon="104.7784304"><ele>295.66</ele><time>2026-01-14T22:42:23.000Z</time></trkpt>
        <trkpt lat="29.0050447" lon="104.7784415"><ele>293.88</ele><time>2026-01-14T22:42:30.000Z</time></trkpt>
        <trkpt lat="29.0051525" lon="104.7784354"><ele>291.79</ele><time>2026-01-14T22:42:40.000Z</time></trkpt>
        <trkpt lat="29.0052556" lon="104.7783956"><ele>289.77</ele><time>2026-01-14T22:42:51.000Z</time></trkpt>
        <trkpt lat="29.0053362" lon="104.7783095"><ele>287.12</ele><time>2026-01-14T22:42:58.000Z</time></trkpt>
        <trkpt lat="29.0053731" lon="104.7782017"><ele>284.56</ele><time>2026-01-14T22:43:06.000Z</time></trkpt>
        <trkpt lat="29.0054122" lon="104.7780941"><ele>283.34</ele><time>2026-01-14T22:43:15.000Z</time></trkpt>
        <trkpt lat="29.0054004" lon="104.7779884"><ele>281.77</ele><time>2026-01-14T22:43:20.000Z</time></trkpt>
        <trkpt lat="29.00537" lon="104.7778724"><ele>280.91</ele><time>2026-01-14T22:43:31.000Z</time></trkpt>
        <trkpt lat="29.005373" lon="104.777764"><ele>280.41</ele><time>2026-01-14T22:43:41.000Z</time></trkpt>
        <trkpt lat="29.005426" lon="104.7776623"><ele>279.27</ele><time>2026-01-14T22:43:49.000Z</time></trkpt>
        <trkpt lat="29.0055055" lon="104.7775687"><ele>277.94</ele><time>2026-01-14T22:43:56.000Z</time></trkpt>
        <trkpt lat="29.0055743" lon="104.7774744"><ele>277.37</ele><time>2026-01-14T22:44:04.000Z</time></trkpt>
        <trkpt lat="29.0056275" lon="104.7773822"><ele>276.01</ele><time>2026-01-14T22:44:12.000Z</time></trkpt>
        <trkpt lat="29.0056929" lon="104.7772893"><ele>276.06</ele><time>2026-01-14T22:44:22.000Z</time></trkpt>
        <trkpt lat="29.0057914" lon="104.7772392"><ele>277.44</ele><time>2026-01-14T22:44:33.000Z</time></trkpt>
        <trkpt lat="29.0058888" lon="104.7772061"><ele>277.62</ele><time>2026-01-14T22:44:41.000Z</time></trkpt>
        <trkpt lat="29.0059829" lon="104.777166"><ele>276.53</ele><time>2026-01-14T22:44:49.000Z</time></trkpt>
        <trkpt lat="29.0060749" lon="104.7771356"><ele>275.11</ele><time>2026-01-14T22:44:57.000Z</time></trkpt>
        <trkpt lat="29.0061678" lon="104.7770906"><ele>273.18</ele><time>2026-01-14T22:45:04.000Z</time></trkpt>
        <trkpt lat="29.0062341" lon="104.7770091"><ele>272.71</ele><time>2026-01-14T22:45:12.000Z</time></trkpt>
        <trkpt lat="29.0062601" lon="104.7769048"><ele>272.75</ele><time>2026-01-14T22:45:21.000Z</time></trkpt>
        <trkpt lat="29.0062705" lon="104.7767947"><ele>272.72</ele><time>2026-01-14T22:45:29.000Z</time></trkpt>
        <trkpt lat="29.0062756" lon="104.7766698"><ele>273.47</ele><time>2026-01-14T22:45:39.000Z</time></trkpt>
        <trkpt lat="29.0062892" lon="104.7765567"><ele>273.56</ele><time>2026-01-14T22:45:46.000Z</time></trkpt>
        <trkpt lat="29.00631" lon="104.776448"><ele>274.56</ele><time>2026-01-14T22:45:55.000Z</time></trkpt>
        <trkpt lat="29.0063245" lon="104.7763399"><ele>275.59</ele><time>2026-01-14T22:46:02.000Z</time></trkpt>
        <trkpt lat="29.0063277" lon="104.7762302"><ele>276</ele><time>2026-01-14T22:46:11.000Z</time></trkpt>
        <trkpt lat="29.0063372" lon="104.7761109"><ele>276.23</ele><time>2026-01-14T22:46:21.000Z</time></trkpt>
        <trkpt lat="29.0063511" lon="104.7760012"><ele>278.21</ele><time>2026-01-14T22:46:29.000Z</time></trkpt>
        <trkpt lat="29.0063501" lon="104.7758726"><ele>279.96</ele><time>2026-01-14T22:46:59.000Z</time></trkpt>
        <trkpt lat="29.0063572" lon="104.775804"><ele>281.15</ele><time>2026-01-14T22:47:05.000Z</time></trkpt>
        <trkpt lat="29.0062631" lon="104.7757745"><ele>283.82</ele><time>2026-01-14T22:48:54.000Z</time></trkpt>
        <trkpt lat="29.0063019" lon="104.7756687"><ele>283.57</ele><time>2026-01-14T22:49:13.000Z</time></trkpt>
        <trkpt lat="29.0062779" lon="104.7755604"><ele>285.51</ele><time>2026-01-14T22:49:22.000Z</time></trkpt>
        <trkpt lat="29.0062027" lon="104.7754874"><ele>286.96</ele><time>2026-01-14T22:49:35.000Z</time></trkpt>
        <trkpt lat="29.0061105" lon="104.7754279"><ele>290.63</ele><time>2026-01-14T22:49:47.000Z</time></trkpt>
        <trkpt lat="29.0060311" lon="104.7753578"><ele>293.05</ele><time>2026-01-14T22:50:00.000Z</time></trkpt>
        <trkpt lat="29.0059361" lon="104.7753498"><ele>295.21</ele><time>2026-01-14T22:50:12.000Z</time></trkpt>
        <trkpt lat="29.0058456" lon="104.7753205"><ele>297.45</ele><time>2026-01-14T22:50:27.000Z</time></trkpt>
        <trkpt lat="29.0057843" lon="104.7752446"><ele>298.55</ele><time>2026-01-14T22:50:36.000Z</time></trkpt>
        <trkpt lat="29.0057134" lon="104.7751639"><ele>300.14</ele><time>2026-01-14T22:50:48.000Z</time></trkpt>
        <trkpt lat="29.0056268" lon="104.775116"><ele>301.07</ele><time>2026-01-14T22:50:59.000Z</time></trkpt>
        <trkpt lat="29.0055339" lon="104.7750795"><ele>301.71</ele><time>2026-01-14T22:51:08.000Z</time></trkpt>
        <trkpt lat="29.0054588" lon="104.7750365"><ele>302.86</ele><time>2026-01-14T22:51:18.000Z</time></trkpt>
        <trkpt lat="29.0053968" lon="104.7749678"><ele>304.21</ele><time>2026-01-14T22:51:28.000Z</time></trkpt>
        <trkpt lat="29.0054042" lon="104.7748548"><ele>304.53</ele><time>2026-01-14T22:51:38.000Z</time></trkpt>
        <trkpt lat="29.0054658" lon="104.7747658"><ele>305.4</ele><time>2026-01-14T22:51:50.000Z</time></trkpt>
        <trkpt lat="29.0054982" lon="104.7746604"><ele>306.19</ele><time>2026-01-14T22:52:06.000Z</time></trkpt>
        <trkpt lat="29.0054979" lon="104.7745408"><ele>309.72</ele><time>2026-01-14T22:52:20.000Z</time></trkpt>
        <trkpt lat="29.0054368" lon="104.7744499"><ele>312.65</ele><time>2026-01-14T22:52:32.000Z</time></trkpt>
        <trkpt lat="29.0053647" lon="104.7743676"><ele>314.45</ele><time>2026-01-14T22:52:48.000Z</time></trkpt>
        <trkpt lat="29.0053386" lon="104.7742646"><ele>317.11</ele><time>2026-01-14T22:52:58.000Z</time></trkpt>
        <trkpt lat="29.0053808" lon="104.7741714"><ele>318.1</ele><time>2026-01-14T22:53:09.000Z</time></trkpt>
        <trkpt lat="29.005397" lon="104.7740652"><ele>319.12</ele><time>2026-01-14T22:53:18.000Z</time></trkpt>
        <trkpt lat="29.0054272" lon="104.7739545"><ele>319.17</ele><time>2026-01-14T22:53:28.000Z</time></trkpt>
        <trkpt lat="29.0054458" lon="104.7738486"><ele>318.61</ele><time>2026-01-14T22:53:36.000Z</time></trkpt>
        <trkpt lat="29.0054974" lon="104.7737563"><ele>317.54</ele><time>2026-01-14T22:53:46.000Z</time></trkpt>
        <trkpt lat="29.0055511" lon="104.7736585"><ele>317.29</ele><time>2026-01-14T22:53:56.000Z</time></trkpt>
        <trkpt lat="29.0055825" lon="104.7735515"><ele>317.25</ele><time>2026-01-14T22:54:06.000Z</time></trkpt>
        <trkpt lat="29.0055862" lon="104.7734352"><ele>317.29</ele><time>2026-01-14T22:54:16.000Z</time></trkpt>
        <trkpt lat="29.005581" lon="104.7733133"><ele>318.23</ele><time>2026-01-14T22:54:26.000Z</time></trkpt>
        <trkpt lat="29.0055649" lon="104.773189"><ele>318.64</ele><time>2026-01-14T22:54:36.000Z</time></trkpt>
        <trkpt lat="29.0055537" lon="104.7730746"><ele>319.19</ele><time>2026-01-14T22:54:47.000Z</time></trkpt>
        <trkpt lat="29.0055938" lon="104.7729786"><ele>319.81</ele><time>2026-01-14T22:54:56.000Z</time></trkpt>
        <trkpt lat="29.0056888" lon="104.7729335"><ele>317.15</ele><time>2026-01-14T22:55:07.000Z</time></trkpt>
        <trkpt lat="29.0057925" lon="104.772927"><ele>315.55</ele><time>2026-01-14T22:55:16.000Z</time></trkpt>
        <trkpt lat="29.0059036" lon="104.7729463"><ele>316.04</ele><time>2026-01-14T22:55:30.000Z</time></trkpt>
        <trkpt lat="29.0059721" lon="104.7729851"><ele>316.07</ele><time>2026-01-14T22:55:42.000Z</time></trkpt>
        <trkpt lat="29.0060621" lon="104.7730346"><ele>317.28</ele><time>2026-01-14T22:55:57.000Z</time></trkpt>
        <trkpt lat="29.0061368" lon="104.7731084"><ele>318.65</ele><time>2026-01-14T22:56:09.000Z</time></trkpt>
        <trkpt lat="29.0061975" lon="104.773211"><ele>319.26</ele><time>2026-01-14T22:56:20.000Z</time></trkpt>
        <trkpt lat="29.0062454" lon="104.7733243"><ele>318.85</ele><time>2026-01-14T22:56:31.000Z</time></trkpt>
        <trkpt lat="29.0063068" lon="104.773419"><ele>318.2</ele><time>2026-01-14T22:56:41.000Z</time></trkpt>
        <trkpt lat="29.0063679" lon="104.7735127"><ele>318.49</ele><time>2026-01-14T22:56:52.000Z</time></trkpt>
        <trkpt lat="29.0063526" lon="104.7736165"><ele>315.93</ele><time>2026-01-14T22:57:01.000Z</time></trkpt>
        <trkpt lat="29.0062959" lon="104.7737137"><ele>315.14</ele><time>2026-01-14T22:57:10.000Z</time></trkpt>
        <trkpt lat="29.0062966" lon="104.7738263"><ele>315</ele><time>2026-01-14T22:57:20.000Z</time></trkpt>
        <trkpt lat="29.0063151" lon="104.7739412"><ele>315.3</ele><time>2026-01-14T22:57:31.000Z</time></trkpt>
        <trkpt lat="29.006342" lon="104.7740583"><ele>315.59</ele><time>2026-01-14T22:57:41.000Z</time></trkpt>
        <trkpt lat="29.0063133" lon="104.774163"><ele>315.63</ele><time>2026-01-14T22:57:51.000Z</time></trkpt>
        <trkpt lat="29.0063145" lon="104.7742705"><ele>315.77</ele><time>2026-01-14T22:58:06.000Z</time></trkpt>
        <trkpt lat="29.0063261" lon="104.7743823"><ele>315.43</ele><time>2026-01-14T22:58:18.000Z</time></trkpt>
        <trkpt lat="29.0063499" lon="104.774491"><ele>314.13</ele><time>2026-01-14T22:58:28.000Z</time></trkpt>
        <trkpt lat="29.0063752" lon="104.7746039"><ele>312</ele><time>2026-01-14T22:58:39.000Z</time></trkpt>
        <trkpt lat="29.0064045" lon="104.774716"><ele>310.43</ele><time>2026-01-14T22:58:49.000Z</time></trkpt>
        <trkpt lat="29.006461" lon="104.7748051"><ele>308.15</ele><time>2026-01-14T22:58:59.000Z</time></trkpt>
        <trkpt lat="29.0065582" lon="104.7748181"><ele>305.75</ele><time>2026-01-14T22:59:08.000Z</time></trkpt>
        <trkpt lat="29.0066668" lon="104.7747872"><ele>304.12</ele><time>2026-01-14T22:59:17.000Z</time></trkpt>
        <trkpt lat="29.0067673" lon="104.7747646"><ele>302.03</ele><time>2026-01-14T22:59:23.000Z</time></trkpt>
        <trkpt lat="29.0068585" lon="104.7747283"><ele>302.36</ele><time>2026-01-14T22:59:30.000Z</time></trkpt>
        <trkpt lat="29.0069439" lon="104.7746744"><ele>302.52</ele><time>2026-01-14T22:59:40.000Z</time></trkpt>
        <trkpt lat="29.0070303" lon="104.7746842"><ele>302.14</ele><time>2026-01-14T22:59:48.000Z</time></trkpt>
        <trkpt lat="29.0071267" lon="104.7746733"><ele>301.53</ele><time>2026-01-14T22:59:56.000Z</time></trkpt>
        <trkpt lat="29.0072142" lon="104.7746162"><ele>300.37</ele><time>2026-01-14T23:00:05.000Z</time></trkpt>
        <trkpt lat="29.0072185" lon="104.774589"><ele>298.67</ele><time>2026-01-14T23:00:07.000Z</time></trkpt>
        <trkpt lat="29.0072826" lon="104.7745492"><ele>297.03</ele><time>2026-01-14T23:00:23.000Z</time></trkpt>
        <trkpt lat="29.0073781" lon="104.7745375"><ele>295.69</ele><time>2026-01-14T23:00:32.000Z</time></trkpt>
        <trkpt lat="29.0074742" lon="104.7745149"><ele>294.38</ele><time>2026-01-14T23:00:43.000Z</time></trkpt>
        <trkpt lat="29.0075692" lon="104.774491"><ele>293.45</ele><time>2026-01-14T23:00:50.000Z</time></trkpt>
        <trkpt lat="29.0076612" lon="104.7744972"><ele>291.91</ele><time>2026-01-14T23:00:57.000Z</time></trkpt>
        <trkpt lat="29.0077385" lon="104.7745549"><ele>291.29</ele><time>2026-01-14T23:01:07.000Z</time></trkpt>
        <trkpt lat="29.0078214" lon="104.7745344"><ele>290.77</ele><time>2026-01-14T23:01:14.000Z</time></trkpt>
        <trkpt lat="29.0079134" lon="104.7744927"><ele>289.82</ele><time>2026-01-14T23:01:23.000Z</time></trkpt>
        <trkpt lat="29.0079828" lon="104.7744027"><ele>289.47</ele><time>2026-01-14T23:01:31.000Z</time></trkpt>
        <trkpt lat="29.0080745" lon="104.7743726"><ele>288.75</ele><time>2026-01-14T23:01:39.000Z</time></trkpt>
        <trkpt lat="29.0081712" lon="104.7743273"><ele>288.62</ele><time>2026-01-14T23:01:47.000Z</time></trkpt>
        <trkpt lat="29.0082617" lon="104.774271"><ele>287.92</ele><time>2026-01-14T23:01:55.000Z</time></trkpt>
        <trkpt lat="29.0083538" lon="104.7742131"><ele>287.86</ele><time>2026-01-14T23:02:04.000Z</time></trkpt>
        <trkpt lat="29.008454" lon="104.7741468"><ele>288.42</ele><time>2026-01-14T23:02:14.000Z</time></trkpt>
        <trkpt lat="29.0085465" lon="104.7740997"><ele>288.91</ele><time>2026-01-14T23:02:22.000Z</time></trkpt>
        <trkpt lat="29.0086325" lon="104.7740226"><ele>289.31</ele><time>2026-01-14T23:02:32.000Z</time></trkpt>
        <trkpt lat="29.0087293" lon="104.7740138"><ele>288.53</ele><time>2026-01-14T23:02:42.000Z</time></trkpt>
        <trkpt lat="29.0087667" lon="104.7740232"><ele>288.86</ele><time>2026-01-14T23:02:44.000Z</time></trkpt>
        <trkpt lat="29.0088134" lon="104.7741057"><ele>288.92</ele><time>2026-01-14T23:03:04.000Z</time></trkpt>
        <trkpt lat="29.008903" lon="104.7741356"><ele>289.22</ele><time>2026-01-14T23:03:14.000Z</time></trkpt>
        <trkpt lat="29.0090005" lon="104.7741528"><ele>287.69</ele><time>2026-01-14T23:03:24.000Z</time></trkpt>
        <trkpt lat="29.0090854" lon="104.7742163"><ele>286.17</ele><time>2026-01-14T23:03:36.000Z</time></trkpt>
        <trkpt lat="29.0091788" lon="104.7742651"><ele>285.38</ele><time>2026-01-14T23:03:49.000Z</time></trkpt>
        <trkpt lat="29.0092745" lon="104.7743147"><ele>285.89</ele><time>2026-01-14T23:04:00.000Z</time></trkpt>
        <trkpt lat="29.0092858" lon="104.774404"><ele>285.13</ele><time>2026-01-14T23:04:11.000Z</time></trkpt>
        <trkpt lat="29.0093187" lon="104.7745111"><ele>283.95</ele><time>2026-01-14T23:04:21.000Z</time></trkpt>
        <trkpt lat="29.0093659" lon="104.7746302"><ele>281.46</ele><time>2026-01-14T23:04:29.000Z</time></trkpt>
        <trkpt lat="29.0094156" lon="104.7747344"><ele>278.46</ele><time>2026-01-14T23:04:35.000Z</time></trkpt>
        <trkpt lat="29.0094811" lon="104.7748358"><ele>276.16</ele><time>2026-01-14T23:04:43.000Z</time></trkpt>
        <trkpt lat="29.0095487" lon="104.7749288"><ele>273.69</ele><time>2026-01-14T23:04:48.000Z</time></trkpt>
        <trkpt lat="29.0096242" lon="104.7750155"><ele>274.67</ele><time>2026-01-14T23:04:58.000Z</time></trkpt>
        <trkpt lat="29.0096464" lon="104.7751153"><ele>276.67</ele><time>2026-01-14T23:05:12.000Z</time></trkpt>
        <trkpt lat="29.0096489" lon="104.7752238"><ele>273.21</ele><time>2026-01-14T23:05:22.000Z</time></trkpt>
        <trkpt lat="29.0096773" lon="104.7753277"><ele>270.53</ele><time>2026-01-14T23:05:33.000Z</time></trkpt>
        <trkpt lat="29.0097235" lon="104.7754347"><ele>269</ele><time>2026-01-14T23:05:43.000Z</time></trkpt>
        <trkpt lat="29.0097848" lon="104.7755275"><ele>266.51</ele><time>2026-01-14T23:05:52.000Z</time></trkpt>
        <trkpt lat="29.0098343" lon="104.7756246"><ele>265</ele><time>2026-01-14T23:06:03.000Z</time></trkpt>
        <trkpt lat="29.0098574" lon="104.7757347"><ele>265</ele><time>2026-01-14T23:06:17.000Z</time></trkpt>
        <trkpt lat="29.0099085" lon="104.7758381"><ele>264.79</ele><time>2026-01-14T23:06:29.000Z</time></trkpt>
        <trkpt lat="29.0099983" lon="104.775854"><ele>266.36</ele><time>2026-01-14T23:06:40.000Z</time></trkpt>
        <trkpt lat="29.0100683" lon="104.7757774"><ele>268.41</ele><time>2026-01-14T23:06:49.000Z</time></trkpt>
        <trkpt lat="29.0101102" lon="104.7756499"><ele>269.02</ele><time>2026-01-14T23:06:56.000Z</time></trkpt>
        <trkpt lat="29.0101466" lon="104.7755304"><ele>269.45</ele><time>2026-01-14T23:07:05.000Z</time></trkpt>
        <trkpt lat="29.0101722" lon="104.7754186"><ele>268.64</ele><time>2026-01-14T23:07:12.000Z</time></trkpt>
        <trkpt lat="29.0101922" lon="104.775313"><ele>269.84</ele><time>2026-01-14T23:07:22.000Z</time></trkpt>
        <trkpt lat="29.0102663" lon="104.7752459"><ele>270.36</ele><time>2026-01-14T23:07:34.000Z</time></trkpt>
        <trkpt lat="29.0103241" lon="104.7751472"><ele>269.78</ele><time>2026-01-14T23:07:43.000Z</time></trkpt>
        <trkpt lat="29.0103781" lon="104.7750398"><ele>267.56</ele><time>2026-01-14T23:07:51.000Z</time></trkpt>
        <trkpt lat="29.0104258" lon="104.7749402"><ele>266.25</ele><time>2026-01-14T23:07:58.000Z</time></trkpt>
        <trkpt lat="29.010458" lon="104.7748259"><ele>266.01</ele><time>2026-01-14T23:08:08.000Z</time></trkpt>
        <trkpt lat="29.010474" lon="104.7747036"><ele>267.82</ele><time>2026-01-14T23:08:17.000Z</time></trkpt>
        <trkpt lat="29.0104911" lon="104.7745866"><ele>268.63</ele><time>2026-01-14T23:08:29.000Z</time></trkpt>
        <trkpt lat="29.0105309" lon="104.7744852"><ele>271.02</ele><time>2026-01-14T23:08:47.000Z</time></trkpt>
        <trkpt lat="29.0105986" lon="104.7744072"><ele>274.45</ele><time>2026-01-14T23:08:56.000Z</time></trkpt>
        <trkpt lat="29.0107006" lon="104.7743604"><ele>276.88</ele><time>2026-01-14T23:09:05.000Z</time></trkpt>
        <trkpt lat="29.0108116" lon="104.7743388"><ele>279.05</ele><time>2026-01-14T23:09:12.000Z</time></trkpt>
        <trkpt lat="29.0108879" lon="104.7742737"><ele>279.36</ele><time>2026-01-14T23:09:20.000Z</time></trkpt>
        <trkpt lat="29.0108493" lon="104.774167"><ele>278.38</ele><time>2026-01-14T23:09:26.000Z</time></trkpt>
        <trkpt lat="29.0109" lon="104.7740987"><ele>276.23</ele><time>2026-01-14T23:09:35.000Z</time></trkpt>
        <trkpt lat="29.0109852" lon="104.7740824"><ele>275.62</ele><time>2026-01-14T23:09:43.000Z</time></trkpt>
        <trkpt lat="29.0110732" lon="104.7741466"><ele>277.08</ele><time>2026-01-14T23:09:50.000Z</time></trkpt>
        <trkpt lat="29.0111613" lon="104.7742108"><ele>278.51</ele><time>2026-01-14T23:10:01.000Z</time></trkpt>
        <trkpt lat="29.0112502" lon="104.7742963"><ele>279.13</ele><time>2026-01-14T23:10:09.000Z</time></trkpt>
        <trkpt lat="29.0113601" lon="104.7742909"><ele>278.73</ele><time>2026-01-14T23:10:16.000Z</time></trkpt>
        <trkpt lat="29.0114643" lon="104.7742429"><ele>276.77</ele><time>2026-01-14T23:10:25.000Z</time></trkpt>
        <trkpt lat="29.0115572" lon="104.7741935"><ele>275.75</ele><time>2026-01-14T23:10:30.000Z</time></trkpt>
        <trkpt lat="29.0116388" lon="104.7741357"><ele>274.15</ele><time>2026-01-14T23:10:36.000Z</time></trkpt>
        <trkpt lat="29.0117031" lon="104.7740488"><ele>272.99</ele><time>2026-01-14T23:10:46.000Z</time></trkpt>
        <trkpt lat="29.0117832" lon="104.7739974"><ele>272.77</ele><time>2026-01-14T23:10:56.000Z</time></trkpt>
        <trkpt lat="29.0118558" lon="104.7739349"><ele>272.52</ele><time>2026-01-14T23:11:04.000Z</time></trkpt>
        <trkpt lat="29.0119211" lon="104.7738507"><ele>270.78</ele><time>2026-01-14T23:11:12.000Z</time></trkpt>
        <trkpt lat="29.0119945" lon="104.7737766"><ele>270.46</ele><time>2026-01-14T23:11:20.000Z</time></trkpt>
        <trkpt lat="29.0120716" lon="104.7737013"><ele>270.81</ele><time>2026-01-14T23:11:28.000Z</time></trkpt>
        <trkpt lat="29.0121354" lon="104.773622"><ele>271.9</ele><time>2026-01-14T23:11:36.000Z</time></trkpt>
        <trkpt lat="29.0122305" lon="104.773568"><ele>272.29</ele><time>2026-01-14T23:11:44.000Z</time></trkpt>
        <trkpt lat="29.0123529" lon="104.7735448"><ele>270.24</ele><time>2026-01-14T23:11:48.000Z</time></trkpt>
        <trkpt lat="29.0124715" lon="104.773527"><ele>269.57</ele><time>2026-01-14T23:11:52.000Z</time></trkpt>
        <trkpt lat="29.0125415" lon="104.7735209"><ele>270.06</ele><time>2026-01-14T23:11:58.000Z</time></trkpt>
        <trkpt lat="29.0125826" lon="104.773595"><ele>270.85</ele><time>2026-01-14T23:12:08.000Z</time></trkpt>
        <trkpt lat="29.0126471" lon="104.7736681"><ele>269.32</ele><time>2026-01-14T23:12:18.000Z</time></trkpt>
        <trkpt lat="29.012728" lon="104.7737772"><ele>269.72</ele><time>2026-01-14T23:12:26.000Z</time></trkpt>
        <trkpt lat="29.0128241" lon="104.7738419"><ele>272.5</ele><time>2026-01-14T23:12:39.000Z</time></trkpt>
        <trkpt lat="29.0128617" lon="104.7739483"><ele>272.31</ele><time>2026-01-14T23:12:48.000Z</time></trkpt>
        <trkpt lat="29.0128646" lon="104.7740582"><ele>270.89</ele><time>2026-01-14T23:12:56.000Z</time></trkpt>
        <trkpt lat="29.0128435" lon="104.7741704"><ele>270.43</ele><time>2026-01-14T23:13:07.000Z</time></trkpt>
        <trkpt lat="29.0128409" lon="104.7742847"><ele>271.62</ele><time>2026-01-14T23:13:14.000Z</time></trkpt>
        <trkpt lat="29.0128658" lon="104.7744108"><ele>269.69</ele><time>2026-01-14T23:13:22.000Z</time></trkpt>
        <trkpt lat="29.0128868" lon="104.7745361"><ele>267.07</ele><time>2026-01-14T23:13:31.000Z</time></trkpt>
        <trkpt lat="29.0129399" lon="104.7746481"><ele>264.69</ele><time>2026-01-14T23:13:38.000Z</time></trkpt>
        <trkpt lat="29.0130002" lon="104.7747589"><ele>261.45</ele><time>2026-01-14T23:13:46.000Z</time></trkpt>
        <trkpt lat="29.0130761" lon="104.7748578"><ele>258.07</ele><time>2026-01-14T23:13:54.000Z</time></trkpt>
        <trkpt lat="29.0131703" lon="104.7749388"><ele>256.36</ele><time>2026-01-14T23:14:02.000Z</time></trkpt>
        <trkpt lat="29.0132632" lon="104.7749901"><ele>255.14</ele><time>2026-01-14T23:14:10.000Z</time></trkpt>
        <trkpt lat="29.0133266" lon="104.775083"><ele>255.42</ele><time>2026-01-14T23:14:24.000Z</time></trkpt>
        <trkpt lat="29.0133266" lon="104.775083"><ele>255.42</ele><time>2026-01-14T23:14:25.000Z</time></trkpt>
      </trkseg>
  </trk>
</gpx>